<?xml version="1.0" encoding="UTF-8" standalone="no" ?>
<gpx xmlns="http://www.topografix.com/GPX/1/1" xmlns:xsi="http://www.w3.org/2001/XMLSchema-instance" xsi:schemaLocation="http://www.topografix.com/GPX/1/1 http://www.topografix.com/GPX/1/1/gpx.xsd" version="1.1" creator="VisuGPX - https://www.visugpx.com">
  <metadata>
    <name>ASLPM marche à Puyravault le 20 Avril 2015</name>
    <desc><![CDATA[Marche à Puyravault le 20 Avril 2015]]></desc>
  </metadata>
  <trk>
    <name><![CDATA[Marche à Puyravault]]></name>
    <trkseg>
      <trkpt lat="46.37481" lon="-1.0902">
        <ele>3.5</ele>
        <time>2015-04-20T07:01:16.000Z</time>
      </trkpt>
      <trkpt lat="46.37484" lon="-1.09007">
        <ele>2.5</ele>
        <time>2015-04-20T07:01:24.000Z</time>
      </trkpt>
      <trkpt lat="46.37482" lon="-1.08992">
        <ele>2.6</ele>
        <time>2015-04-20T07:01:33.000Z</time>
      </trkpt>
      <trkpt lat="46.37476" lon="-1.0898">
        <ele>3.4</ele>
        <time>2015-04-20T07:01:42.000Z</time>
      </trkpt>
      <trkpt lat="46.37468" lon="-1.08979">
        <ele>3.4</ele>
        <time>2015-04-20T07:01:49.000Z</time>
      </trkpt>
      <trkpt lat="46.37453" lon="-1.08977">
        <ele>3.1</ele>
        <time>2015-04-20T07:02:00.000Z</time>
      </trkpt>
      <trkpt lat="46.37442" lon="-1.08975">
        <ele>2.9</ele>
        <time>2015-04-20T07:02:08.000Z</time>
      </trkpt>
      <trkpt lat="46.37428" lon="-1.08973">
        <ele>3</ele>
        <time>2015-04-20T07:02:19.000Z</time>
      </trkpt>
      <trkpt lat="46.37416" lon="-1.08971">
        <ele>3</ele>
        <time>2015-04-20T07:02:27.000Z</time>
      </trkpt>
      <trkpt lat="46.374" lon="-1.08968">
        <ele>2.5</ele>
        <time>2015-04-20T07:02:39.000Z</time>
      </trkpt>
      <trkpt lat="46.37385" lon="-1.08964">
        <ele>2.3</ele>
        <time>2015-04-20T07:02:49.000Z</time>
      </trkpt>
      <trkpt lat="46.37368" lon="-1.08961">
        <ele>2.4</ele>
        <time>2015-04-20T07:03:01.000Z</time>
      </trkpt>
      <trkpt lat="46.37357" lon="-1.08959">
        <ele>2.5</ele>
        <time>2015-04-20T07:03:09.000Z</time>
      </trkpt>
      <trkpt lat="46.37343" lon="-1.08956">
        <ele>2.6</ele>
        <time>2015-04-20T07:03:19.000Z</time>
      </trkpt>
      <trkpt lat="46.37333" lon="-1.08953">
        <ele>2.7</ele>
        <time>2015-04-20T07:03:26.000Z</time>
      </trkpt>
      <trkpt lat="46.37318" lon="-1.08949">
        <ele>2.9</ele>
        <time>2015-04-20T07:03:36.000Z</time>
      </trkpt>
      <trkpt lat="46.37303" lon="-1.08945">
        <ele>3</ele>
        <time>2015-04-20T07:03:46.000Z</time>
      </trkpt>
      <trkpt lat="46.37288" lon="-1.08943">
        <ele>2.9</ele>
        <time>2015-04-20T07:03:56.000Z</time>
      </trkpt>
      <trkpt lat="46.37271" lon="-1.08939">
        <ele>2.6</ele>
        <time>2015-04-20T07:04:06.000Z</time>
      </trkpt>
      <trkpt lat="46.37256" lon="-1.08935">
        <ele>2.1</ele>
        <time>2015-04-20T07:04:16.000Z</time>
      </trkpt>
      <trkpt lat="46.37244" lon="-1.08932">
        <ele>2</ele>
        <time>2015-04-20T07:04:24.000Z</time>
      </trkpt>
      <trkpt lat="46.37228" lon="-1.08928">
        <ele>2</ele>
        <time>2015-04-20T07:04:34.000Z</time>
      </trkpt>
      <trkpt lat="46.37212" lon="-1.08924">
        <ele>2</ele>
        <time>2015-04-20T07:04:44.000Z</time>
      </trkpt>
      <trkpt lat="46.37176" lon="-1.08916">
        <ele>2</ele>
        <time>2015-04-20T07:05:07.000Z</time>
      </trkpt>
      <trkpt lat="46.37162" lon="-1.08913">
        <ele>2</ele>
        <time>2015-04-20T07:05:16.000Z</time>
      </trkpt>
      <trkpt lat="46.3715" lon="-1.0891">
        <ele>2</ele>
        <time>2015-04-20T07:05:24.000Z</time>
      </trkpt>
      <trkpt lat="46.37134" lon="-1.08906">
        <ele>2</ele>
        <time>2015-04-20T07:05:35.000Z</time>
      </trkpt>
      <trkpt lat="46.37118" lon="-1.08902">
        <ele>2</ele>
        <time>2015-04-20T07:05:46.000Z</time>
      </trkpt>
      <trkpt lat="46.37086" lon="-1.08895">
        <ele>2.5</ele>
        <time>2015-04-20T07:06:07.000Z</time>
      </trkpt>
      <trkpt lat="46.37075" lon="-1.08892">
        <ele>2.8</ele>
        <time>2015-04-20T07:06:15.000Z</time>
      </trkpt>
      <trkpt lat="46.37063" lon="-1.0889">
        <ele>3</ele>
        <time>2015-04-20T07:06:23.000Z</time>
      </trkpt>
      <trkpt lat="46.37051" lon="-1.08888">
        <ele>2.8</ele>
        <time>2015-04-20T07:06:31.000Z</time>
      </trkpt>
      <trkpt lat="46.37036" lon="-1.08884">
        <ele>2.2</ele>
        <time>2015-04-20T07:06:41.000Z</time>
      </trkpt>
      <trkpt lat="46.37018" lon="-1.0888">
        <ele>1.8</ele>
        <time>2015-04-20T07:06:53.000Z</time>
      </trkpt>
      <trkpt lat="46.37002" lon="-1.08875">
        <ele>1.5</ele>
        <time>2015-04-20T07:07:04.000Z</time>
      </trkpt>
      <trkpt lat="46.36991" lon="-1.08873">
        <ele>1.7</ele>
        <time>2015-04-20T07:07:11.000Z</time>
      </trkpt>
      <trkpt lat="46.36976" lon="-1.0887">
        <ele>2</ele>
        <time>2015-04-20T07:07:21.000Z</time>
      </trkpt>
      <trkpt lat="46.36961" lon="-1.08866">
        <ele>2.1</ele>
        <time>2015-04-20T07:07:30.000Z</time>
      </trkpt>
      <trkpt lat="46.3695" lon="-1.08863">
        <ele>2.1</ele>
        <time>2015-04-20T07:07:38.000Z</time>
      </trkpt>
      <trkpt lat="46.36931" lon="-1.0886">
        <ele>2</ele>
        <time>2015-04-20T07:07:50.000Z</time>
      </trkpt>
      <trkpt lat="46.36914" lon="-1.08856">
        <ele>1.9</ele>
        <time>2015-04-20T07:08:02.000Z</time>
      </trkpt>
      <trkpt lat="46.36899" lon="-1.08853">
        <ele>1.6</ele>
        <time>2015-04-20T07:08:12.000Z</time>
      </trkpt>
      <trkpt lat="46.36883" lon="-1.08849">
        <ele>1.4</ele>
        <time>2015-04-20T07:08:23.000Z</time>
      </trkpt>
      <trkpt lat="46.3687" lon="-1.08846">
        <ele>1.5</ele>
        <time>2015-04-20T07:08:32.000Z</time>
      </trkpt>
      <trkpt lat="46.36855" lon="-1.08843">
        <ele>1.7</ele>
        <time>2015-04-20T07:08:42.000Z</time>
      </trkpt>
      <trkpt lat="46.36839" lon="-1.08839">
        <ele>1.8</ele>
        <time>2015-04-20T07:08:53.000Z</time>
      </trkpt>
      <trkpt lat="46.36816" lon="-1.08835">
        <ele>2</ele>
        <time>2015-04-20T07:09:10.000Z</time>
      </trkpt>
      <trkpt lat="46.36798" lon="-1.08831">
        <ele>2</ele>
        <time>2015-04-20T07:09:22.000Z</time>
      </trkpt>
      <trkpt lat="46.36773" lon="-1.08825">
        <ele>1.9</ele>
        <time>2015-04-20T07:09:40.000Z</time>
      </trkpt>
      <trkpt lat="46.36757" lon="-1.08821">
        <ele>1.6</ele>
        <time>2015-04-20T07:09:51.000Z</time>
      </trkpt>
      <trkpt lat="46.36745" lon="-1.0882">
        <ele>1.5</ele>
        <time>2015-04-20T07:10:00.000Z</time>
      </trkpt>
      <trkpt lat="46.3673" lon="-1.08817">
        <ele>1.6</ele>
        <time>2015-04-20T07:10:10.000Z</time>
      </trkpt>
      <trkpt lat="46.36713" lon="-1.08814">
        <ele>1.8</ele>
        <time>2015-04-20T07:10:22.000Z</time>
      </trkpt>
      <trkpt lat="46.36697" lon="-1.08811">
        <ele>2</ele>
        <time>2015-04-20T07:10:33.000Z</time>
      </trkpt>
      <trkpt lat="46.36683" lon="-1.08807">
        <ele>2</ele>
        <time>2015-04-20T07:10:43.000Z</time>
      </trkpt>
      <trkpt lat="46.36669" lon="-1.08805">
        <ele>2</ele>
        <time>2015-04-20T07:10:53.000Z</time>
      </trkpt>
      <trkpt lat="46.36637" lon="-1.08798">
        <ele>1.3</ele>
        <time>2015-04-20T07:11:13.000Z</time>
      </trkpt>
      <trkpt lat="46.36621" lon="-1.08794">
        <ele>1.4</ele>
        <time>2015-04-20T07:11:24.000Z</time>
      </trkpt>
      <trkpt lat="46.36605" lon="-1.0879">
        <ele>1.6</ele>
        <time>2015-04-20T07:11:35.000Z</time>
      </trkpt>
      <trkpt lat="46.36575" lon="-1.08783">
        <ele>2</ele>
        <time>2015-04-20T07:11:56.000Z</time>
      </trkpt>
      <trkpt lat="46.36562" lon="-1.08781">
        <ele>2</ele>
        <time>2015-04-20T07:12:05.000Z</time>
      </trkpt>
      <trkpt lat="46.36548" lon="-1.08778">
        <ele>2</ele>
        <time>2015-04-20T07:12:15.000Z</time>
      </trkpt>
      <trkpt lat="46.36535" lon="-1.08775">
        <ele>2</ele>
        <time>2015-04-20T07:12:24.000Z</time>
      </trkpt>
      <trkpt lat="46.36519" lon="-1.08772">
        <ele>2</ele>
        <time>2015-04-20T07:12:35.000Z</time>
      </trkpt>
      <trkpt lat="46.36503" lon="-1.08769">
        <ele>2</ele>
        <time>2015-04-20T07:12:47.000Z</time>
      </trkpt>
      <trkpt lat="46.3649" lon="-1.08767">
        <ele>1.8</ele>
        <time>2015-04-20T07:12:56.000Z</time>
      </trkpt>
      <trkpt lat="46.36473" lon="-1.08764">
        <ele>1.5</ele>
        <time>2015-04-20T07:13:08.000Z</time>
      </trkpt>
      <trkpt lat="46.36455" lon="-1.08762">
        <ele>1.6</ele>
        <time>2015-04-20T07:13:20.000Z</time>
      </trkpt>
      <trkpt lat="46.36438" lon="-1.08758">
        <ele>1.7</ele>
        <time>2015-04-20T07:13:32.000Z</time>
      </trkpt>
      <trkpt lat="46.36424" lon="-1.08755">
        <ele>1.8</ele>
        <time>2015-04-20T07:13:42.000Z</time>
      </trkpt>
      <trkpt lat="46.36388" lon="-1.08749">
        <ele>2</ele>
        <time>2015-04-20T07:14:07.000Z</time>
      </trkpt>
      <trkpt lat="46.36371" lon="-1.08746">
        <ele>2</ele>
        <time>2015-04-20T07:14:19.000Z</time>
      </trkpt>
      <trkpt lat="46.36354" lon="-1.08742">
        <ele>2</ele>
        <time>2015-04-20T07:14:31.000Z</time>
      </trkpt>
      <trkpt lat="46.36339" lon="-1.0874">
        <ele>2</ele>
        <time>2015-04-20T07:14:41.000Z</time>
      </trkpt>
      <trkpt lat="46.36323" lon="-1.08737">
        <ele>1.8</ele>
        <time>2015-04-20T07:14:52.000Z</time>
      </trkpt>
      <trkpt lat="46.36306" lon="-1.08734">
        <ele>1.6</ele>
        <time>2015-04-20T07:15:04.000Z</time>
      </trkpt>
      <trkpt lat="46.36287" lon="-1.0873">
        <ele>1.7</ele>
        <time>2015-04-20T07:15:17.000Z</time>
      </trkpt>
      <trkpt lat="46.3627" lon="-1.08727">
        <ele>2.2</ele>
        <time>2015-04-20T07:15:29.000Z</time>
      </trkpt>
      <trkpt lat="46.36251" lon="-1.08724">
        <ele>3</ele>
        <time>2015-04-20T07:15:42.000Z</time>
      </trkpt>
      <trkpt lat="46.36235" lon="-1.08721">
        <ele>2.4</ele>
        <time>2015-04-20T07:15:53.000Z</time>
      </trkpt>
      <trkpt lat="46.36218" lon="-1.08718">
        <ele>1.9</ele>
        <time>2015-04-20T07:16:05.000Z</time>
      </trkpt>
      <trkpt lat="46.36203" lon="-1.08716">
        <ele>1.5</ele>
        <time>2015-04-20T07:16:15.000Z</time>
      </trkpt>
      <trkpt lat="46.36189" lon="-1.08713">
        <ele>1.3</ele>
        <time>2015-04-20T07:16:25.000Z</time>
      </trkpt>
      <trkpt lat="46.36177" lon="-1.08709">
        <ele>1.5</ele>
        <time>2015-04-20T07:16:33.000Z</time>
      </trkpt>
      <trkpt lat="46.36158" lon="-1.08705">
        <ele>1.7</ele>
        <time>2015-04-20T07:16:46.000Z</time>
      </trkpt>
      <trkpt lat="46.36145" lon="-1.08702">
        <ele>1.9</ele>
        <time>2015-04-20T07:16:54.000Z</time>
      </trkpt>
      <trkpt lat="46.36129" lon="-1.08698">
        <ele>2</ele>
        <time>2015-04-20T07:17:05.000Z</time>
      </trkpt>
      <trkpt lat="46.36114" lon="-1.08696">
        <ele>2</ele>
        <time>2015-04-20T07:17:15.000Z</time>
      </trkpt>
      <trkpt lat="46.36099" lon="-1.08693">
        <ele>1.6</ele>
        <time>2015-04-20T07:17:25.000Z</time>
      </trkpt>
      <trkpt lat="46.3608" lon="-1.0869">
        <ele>1.2</ele>
        <time>2015-04-20T07:17:38.000Z</time>
      </trkpt>
      <trkpt lat="46.36066" lon="-1.08685">
        <ele>1.3</ele>
        <time>2015-04-20T07:17:48.000Z</time>
      </trkpt>
      <trkpt lat="46.36061" lon="-1.08681">
        <ele>1.5</ele>
        <time>2015-04-20T07:17:55.000Z</time>
      </trkpt>
      <trkpt lat="46.36057" lon="-1.08678">
        <ele>1.6</ele>
        <time>2015-04-20T07:18:11.000Z</time>
      </trkpt>
      <trkpt lat="46.36059" lon="-1.08683">
        <ele>1.4</ele>
        <time>2015-04-20T07:18:23.000Z</time>
      </trkpt>
      <trkpt lat="46.36059" lon="-1.08685">
        <ele>1.3</ele>
        <time>2015-04-20T07:18:52.000Z</time>
      </trkpt>
      <trkpt lat="46.36058" lon="-1.08684">
        <ele>1.4</ele>
        <time>2015-04-20T07:19:27.000Z</time>
      </trkpt>
      <trkpt lat="46.36056" lon="-1.08683">
        <ele>1.4</ele>
        <time>2015-04-20T07:20:07.000Z</time>
      </trkpt>
      <trkpt lat="46.36054" lon="-1.08683">
        <ele>1.4</ele>
        <time>2015-04-20T07:20:17.000Z</time>
      </trkpt>
      <trkpt lat="46.36052" lon="-1.08683">
        <ele>1.4</ele>
        <time>2015-04-20T07:21:04.000Z</time>
      </trkpt>
      <trkpt lat="46.36051" lon="-1.08681">
        <ele>1.5</ele>
        <time>2015-04-20T07:22:31.000Z</time>
      </trkpt>
      <trkpt lat="46.36049" lon="-1.08681">
        <ele>1.5</ele>
        <time>2015-04-20T07:22:39.000Z</time>
      </trkpt>
      <trkpt lat="46.36047" lon="-1.08679">
        <ele>1.6</ele>
        <time>2015-04-20T07:22:47.000Z</time>
      </trkpt>
      <trkpt lat="46.36044" lon="-1.08679">
        <ele>1.5</ele>
        <time>2015-04-20T07:23:02.000Z</time>
      </trkpt>
      <trkpt lat="46.36042" lon="-1.08679">
        <ele>1.6</ele>
        <time>2015-04-20T07:23:07.000Z</time>
      </trkpt>
      <trkpt lat="46.36039" lon="-1.08678">
        <ele>1.6</ele>
        <time>2015-04-20T07:23:12.000Z</time>
      </trkpt>
      <trkpt lat="46.36033" lon="-1.08678">
        <ele>1.6</ele>
        <time>2015-04-20T07:23:19.000Z</time>
      </trkpt>
      <trkpt lat="46.36024" lon="-1.08676">
        <ele>1.7</ele>
        <time>2015-04-20T07:23:28.000Z</time>
      </trkpt>
      <trkpt lat="46.36014" lon="-1.08674">
        <ele>1.7</ele>
        <time>2015-04-20T07:23:36.000Z</time>
      </trkpt>
      <trkpt lat="46.35994" lon="-1.0867">
        <ele>1.9</ele>
        <time>2015-04-20T07:23:54.000Z</time>
      </trkpt>
      <trkpt lat="46.35977" lon="-1.08666">
        <ele>2</ele>
        <time>2015-04-20T07:24:07.000Z</time>
      </trkpt>
      <trkpt lat="46.35961" lon="-1.08663">
        <ele>2</ele>
        <time>2015-04-20T07:24:18.000Z</time>
      </trkpt>
      <trkpt lat="46.35948" lon="-1.08661">
        <ele>2</ele>
        <time>2015-04-20T07:24:29.000Z</time>
      </trkpt>
      <trkpt lat="46.35929" lon="-1.08657">
        <ele>2</ele>
        <time>2015-04-20T07:24:42.000Z</time>
      </trkpt>
      <trkpt lat="46.35913" lon="-1.08653">
        <ele>1.9</ele>
        <time>2015-04-20T07:24:55.000Z</time>
      </trkpt>
      <trkpt lat="46.35896" lon="-1.08649">
        <ele>1.7</ele>
        <time>2015-04-20T07:25:07.000Z</time>
      </trkpt>
      <trkpt lat="46.35879" lon="-1.08646">
        <ele>2</ele>
        <time>2015-04-20T07:25:18.000Z</time>
      </trkpt>
      <trkpt lat="46.35862" lon="-1.08643">
        <ele>2.7</ele>
        <time>2015-04-20T07:25:30.000Z</time>
      </trkpt>
      <trkpt lat="46.35848" lon="-1.0864">
        <ele>3</ele>
        <time>2015-04-20T07:25:40.000Z</time>
      </trkpt>
      <trkpt lat="46.35832" lon="-1.08636">
        <ele>2.9</ele>
        <time>2015-04-20T07:25:51.000Z</time>
      </trkpt>
      <trkpt lat="46.35815" lon="-1.08633">
        <ele>2.8</ele>
        <time>2015-04-20T07:26:02.000Z</time>
      </trkpt>
      <trkpt lat="46.35802" lon="-1.0863">
        <ele>2.6</ele>
        <time>2015-04-20T07:26:12.000Z</time>
      </trkpt>
      <trkpt lat="46.35787" lon="-1.08627">
        <ele>2.2</ele>
        <time>2015-04-20T07:26:21.000Z</time>
      </trkpt>
      <trkpt lat="46.35773" lon="-1.08625">
        <ele>2</ele>
        <time>2015-04-20T07:26:32.000Z</time>
      </trkpt>
      <trkpt lat="46.35755" lon="-1.08621">
        <ele>2.2</ele>
        <time>2015-04-20T07:26:44.000Z</time>
      </trkpt>
      <trkpt lat="46.35738" lon="-1.08618">
        <ele>2.2</ele>
        <time>2015-04-20T07:26:55.000Z</time>
      </trkpt>
      <trkpt lat="46.35724" lon="-1.08615">
        <ele>1.9</ele>
        <time>2015-04-20T07:27:04.000Z</time>
      </trkpt>
      <trkpt lat="46.35709" lon="-1.08612">
        <ele>2.4</ele>
        <time>2015-04-20T07:27:15.000Z</time>
      </trkpt>
      <trkpt lat="46.35693" lon="-1.08609">
        <ele>2.9</ele>
        <time>2015-04-20T07:27:26.000Z</time>
      </trkpt>
      <trkpt lat="46.35678" lon="-1.08606">
        <ele>2.3</ele>
        <time>2015-04-20T07:27:36.000Z</time>
      </trkpt>
      <trkpt lat="46.35646" lon="-1.08601">
        <ele>2</ele>
        <time>2015-04-20T07:27:57.000Z</time>
      </trkpt>
      <trkpt lat="46.35631" lon="-1.08598">
        <ele>1.9</ele>
        <time>2015-04-20T07:28:07.000Z</time>
      </trkpt>
      <trkpt lat="46.35615" lon="-1.08594">
        <ele>1.7</ele>
        <time>2015-04-20T07:28:19.000Z</time>
      </trkpt>
      <trkpt lat="46.35598" lon="-1.08591">
        <ele>1.7</ele>
        <time>2015-04-20T07:28:31.000Z</time>
      </trkpt>
      <trkpt lat="46.35582" lon="-1.08589">
        <ele>1.8</ele>
        <time>2015-04-20T07:28:42.000Z</time>
      </trkpt>
      <trkpt lat="46.35564" lon="-1.08585">
        <ele>2</ele>
        <time>2015-04-20T07:28:55.000Z</time>
      </trkpt>
      <trkpt lat="46.35545" lon="-1.08581">
        <ele>2.3</ele>
        <time>2015-04-20T07:29:07.000Z</time>
      </trkpt>
      <trkpt lat="46.35526" lon="-1.08577">
        <ele>2.7</ele>
        <time>2015-04-20T07:29:21.000Z</time>
      </trkpt>
      <trkpt lat="46.35509" lon="-1.08574">
        <ele>2.2</ele>
        <time>2015-04-20T07:29:32.000Z</time>
      </trkpt>
      <trkpt lat="46.35493" lon="-1.08572">
        <ele>2</ele>
        <time>2015-04-20T07:29:44.000Z</time>
      </trkpt>
      <trkpt lat="46.35487" lon="-1.08555">
        <ele>2.4</ele>
        <time>2015-04-20T07:29:55.000Z</time>
      </trkpt>
      <trkpt lat="46.3549" lon="-1.08532">
        <ele>1.5</ele>
        <time>2015-04-20T07:30:06.000Z</time>
      </trkpt>
      <trkpt lat="46.35492" lon="-1.08505">
        <ele>1.3</ele>
        <time>2015-04-20T07:30:19.000Z</time>
      </trkpt>
      <trkpt lat="46.35492" lon="-1.0848">
        <ele>1.3</ele>
        <time>2015-04-20T07:30:31.000Z</time>
      </trkpt>
      <trkpt lat="46.35494" lon="-1.0846">
        <ele>1.6</ele>
        <time>2015-04-20T07:30:41.000Z</time>
      </trkpt>
      <trkpt lat="46.35495" lon="-1.0844">
        <ele>2</ele>
        <time>2015-04-20T07:30:51.000Z</time>
      </trkpt>
      <trkpt lat="46.35497" lon="-1.08412">
        <ele>2</ele>
        <time>2015-04-20T07:31:03.000Z</time>
      </trkpt>
      <trkpt lat="46.35499" lon="-1.08388">
        <ele>2</ele>
        <time>2015-04-20T07:31:15.000Z</time>
      </trkpt>
      <trkpt lat="46.35501" lon="-1.08362">
        <ele>2</ele>
        <time>2015-04-20T07:31:27.000Z</time>
      </trkpt>
      <trkpt lat="46.35502" lon="-1.08341">
        <ele>2</ele>
        <time>2015-04-20T07:31:37.000Z</time>
      </trkpt>
      <trkpt lat="46.35503" lon="-1.08317">
        <ele>2</ele>
        <time>2015-04-20T07:31:47.000Z</time>
      </trkpt>
      <trkpt lat="46.35504" lon="-1.0829">
        <ele>2.5</ele>
        <time>2015-04-20T07:32:01.000Z</time>
      </trkpt>
      <trkpt lat="46.35505" lon="-1.08267">
        <ele>2.5</ele>
        <time>2015-04-20T07:32:12.000Z</time>
      </trkpt>
      <trkpt lat="46.35506" lon="-1.08243">
        <ele>2</ele>
        <time>2015-04-20T07:32:23.000Z</time>
      </trkpt>
      <trkpt lat="46.35507" lon="-1.08222">
        <ele>2</ele>
        <time>2015-04-20T07:32:33.000Z</time>
      </trkpt>
      <trkpt lat="46.3551" lon="-1.08171">
        <ele>2</ele>
        <time>2015-04-20T07:32:56.000Z</time>
      </trkpt>
      <trkpt lat="46.35511" lon="-1.08144">
        <ele>2</ele>
        <time>2015-04-20T07:33:09.000Z</time>
      </trkpt>
      <trkpt lat="46.35513" lon="-1.08119">
        <ele>2</ele>
        <time>2015-04-20T07:33:21.000Z</time>
      </trkpt>
      <trkpt lat="46.35514" lon="-1.08096">
        <ele>2</ele>
        <time>2015-04-20T07:33:32.000Z</time>
      </trkpt>
      <trkpt lat="46.35516" lon="-1.08072">
        <ele>2</ele>
        <time>2015-04-20T07:33:43.000Z</time>
      </trkpt>
      <trkpt lat="46.35517" lon="-1.08046">
        <ele>1.8</ele>
        <time>2015-04-20T07:33:55.000Z</time>
      </trkpt>
      <trkpt lat="46.35519" lon="-1.08019">
        <ele>1.3</ele>
        <time>2015-04-20T07:34:07.000Z</time>
      </trkpt>
      <trkpt lat="46.3552" lon="-1.07992">
        <ele>1.3</ele>
        <time>2015-04-20T07:34:20.000Z</time>
      </trkpt>
      <trkpt lat="46.35521" lon="-1.07966">
        <ele>1.2</ele>
        <time>2015-04-20T07:34:32.000Z</time>
      </trkpt>
      <trkpt lat="46.35522" lon="-1.07942">
        <ele>1.3</ele>
        <time>2015-04-20T07:34:43.000Z</time>
      </trkpt>
      <trkpt lat="46.35523" lon="-1.07922">
        <ele>1.8</ele>
        <time>2015-04-20T07:34:52.000Z</time>
      </trkpt>
      <trkpt lat="46.35524" lon="-1.07897">
        <ele>2</ele>
        <time>2015-04-20T07:35:04.000Z</time>
      </trkpt>
      <trkpt lat="46.35526" lon="-1.07869">
        <ele>2</ele>
        <time>2015-04-20T07:35:17.000Z</time>
      </trkpt>
      <trkpt lat="46.35527" lon="-1.07842">
        <ele>2</ele>
        <time>2015-04-20T07:35:29.000Z</time>
      </trkpt>
      <trkpt lat="46.35528" lon="-1.07818">
        <ele>2</ele>
        <time>2015-04-20T07:35:40.000Z</time>
      </trkpt>
      <trkpt lat="46.35529" lon="-1.07796">
        <ele>2</ele>
        <time>2015-04-20T07:35:50.000Z</time>
      </trkpt>
      <trkpt lat="46.35531" lon="-1.07769">
        <ele>2</ele>
        <time>2015-04-20T07:36:02.000Z</time>
      </trkpt>
      <trkpt lat="46.35532" lon="-1.07748">
        <ele>2</ele>
        <time>2015-04-20T07:36:12.000Z</time>
      </trkpt>
      <trkpt lat="46.35534" lon="-1.07724">
        <ele>2</ele>
        <time>2015-04-20T07:36:23.000Z</time>
      </trkpt>
      <trkpt lat="46.35536" lon="-1.07699">
        <ele>2</ele>
        <time>2015-04-20T07:36:35.000Z</time>
      </trkpt>
      <trkpt lat="46.35537" lon="-1.07676">
        <ele>2</ele>
        <time>2015-04-20T07:36:45.000Z</time>
      </trkpt>
      <trkpt lat="46.35538" lon="-1.07651">
        <ele>2</ele>
        <time>2015-04-20T07:36:57.000Z</time>
      </trkpt>
      <trkpt lat="46.35539" lon="-1.07625">
        <ele>2</ele>
        <time>2015-04-20T07:37:10.000Z</time>
      </trkpt>
      <trkpt lat="46.3554" lon="-1.07599">
        <ele>2</ele>
        <time>2015-04-20T07:37:22.000Z</time>
      </trkpt>
      <trkpt lat="46.35541" lon="-1.07573">
        <ele>2</ele>
        <time>2015-04-20T07:37:34.000Z</time>
      </trkpt>
      <trkpt lat="46.35544" lon="-1.07522">
        <ele>1.9</ele>
        <time>2015-04-20T07:37:57.000Z</time>
      </trkpt>
      <trkpt lat="46.35546" lon="-1.07495">
        <ele>1.3</ele>
        <time>2015-04-20T07:38:10.000Z</time>
      </trkpt>
      <trkpt lat="46.35547" lon="-1.0747">
        <ele>1.3</ele>
        <time>2015-04-20T07:38:22.000Z</time>
      </trkpt>
      <trkpt lat="46.35549" lon="-1.07446">
        <ele>1.2</ele>
        <time>2015-04-20T07:38:33.000Z</time>
      </trkpt>
      <trkpt lat="46.3555" lon="-1.0742">
        <ele>1.2</ele>
        <time>2015-04-20T07:38:45.000Z</time>
      </trkpt>
      <trkpt lat="46.35552" lon="-1.07393">
        <ele>1.9</ele>
        <time>2015-04-20T07:38:57.000Z</time>
      </trkpt>
      <trkpt lat="46.35553" lon="-1.07366">
        <ele>2</ele>
        <time>2015-04-20T07:39:10.000Z</time>
      </trkpt>
      <trkpt lat="46.35553" lon="-1.0734">
        <ele>2</ele>
        <time>2015-04-20T07:39:22.000Z</time>
      </trkpt>
      <trkpt lat="46.35554" lon="-1.07315">
        <ele>2</ele>
        <time>2015-04-20T07:39:33.000Z</time>
      </trkpt>
      <trkpt lat="46.35555" lon="-1.07289">
        <ele>2</ele>
        <time>2015-04-20T07:39:44.000Z</time>
      </trkpt>
      <trkpt lat="46.35557" lon="-1.07262">
        <ele>2</ele>
        <time>2015-04-20T07:39:55.000Z</time>
      </trkpt>
      <trkpt lat="46.35558" lon="-1.07235">
        <ele>2</ele>
        <time>2015-04-20T07:40:07.000Z</time>
      </trkpt>
      <trkpt lat="46.35559" lon="-1.07209">
        <ele>2</ele>
        <time>2015-04-20T07:40:19.000Z</time>
      </trkpt>
      <trkpt lat="46.3556" lon="-1.07186">
        <ele>2</ele>
        <time>2015-04-20T07:40:29.000Z</time>
      </trkpt>
      <trkpt lat="46.35562" lon="-1.07161">
        <ele>2</ele>
        <time>2015-04-20T07:40:40.000Z</time>
      </trkpt>
      <trkpt lat="46.35563" lon="-1.07133">
        <ele>2</ele>
        <time>2015-04-20T07:40:52.000Z</time>
      </trkpt>
      <trkpt lat="46.35565" lon="-1.07105">
        <ele>2</ele>
        <time>2015-04-20T07:41:04.000Z</time>
      </trkpt>
      <trkpt lat="46.35567" lon="-1.07078">
        <ele>2</ele>
        <time>2015-04-20T07:41:16.000Z</time>
      </trkpt>
      <trkpt lat="46.35569" lon="-1.07052">
        <ele>2</ele>
        <time>2015-04-20T07:41:27.000Z</time>
      </trkpt>
      <trkpt lat="46.35571" lon="-1.07026">
        <ele>2</ele>
        <time>2015-04-20T07:41:38.000Z</time>
      </trkpt>
      <trkpt lat="46.35572" lon="-1.06997">
        <ele>1.9</ele>
        <time>2015-04-20T07:41:50.000Z</time>
      </trkpt>
      <trkpt lat="46.35574" lon="-1.06971">
        <ele>1.3</ele>
        <time>2015-04-20T07:42:01.000Z</time>
      </trkpt>
      <trkpt lat="46.35575" lon="-1.06945">
        <ele>1.3</ele>
        <time>2015-04-20T07:42:12.000Z</time>
      </trkpt>
      <trkpt lat="46.35576" lon="-1.06919">
        <ele>1.3</ele>
        <time>2015-04-20T07:42:23.000Z</time>
      </trkpt>
      <trkpt lat="46.35577" lon="-1.06894">
        <ele>1.2</ele>
        <time>2015-04-20T07:42:34.000Z</time>
      </trkpt>
      <trkpt lat="46.35578" lon="-1.06867">
        <ele>1.8</ele>
        <time>2015-04-20T07:42:46.000Z</time>
      </trkpt>
      <trkpt lat="46.35579" lon="-1.06837">
        <ele>2</ele>
        <time>2015-04-20T07:42:58.000Z</time>
      </trkpt>
      <trkpt lat="46.3558" lon="-1.06811">
        <ele>2</ele>
        <time>2015-04-20T07:43:10.000Z</time>
      </trkpt>
      <trkpt lat="46.35582" lon="-1.06783">
        <ele>2</ele>
        <time>2015-04-20T07:43:22.000Z</time>
      </trkpt>
      <trkpt lat="46.35582" lon="-1.06762">
        <ele>2</ele>
        <time>2015-04-20T07:43:31.000Z</time>
      </trkpt>
      <trkpt lat="46.35584" lon="-1.0674">
        <ele>2.3</ele>
        <time>2015-04-20T07:43:41.000Z</time>
      </trkpt>
      <trkpt lat="46.35585" lon="-1.06718">
        <ele>2.9</ele>
        <time>2015-04-20T07:43:51.000Z</time>
      </trkpt>
      <trkpt lat="46.35587" lon="-1.06691">
        <ele>2.9</ele>
        <time>2015-04-20T07:44:02.000Z</time>
      </trkpt>
      <trkpt lat="46.35588" lon="-1.0667">
        <ele>2.8</ele>
        <time>2015-04-20T07:44:11.000Z</time>
      </trkpt>
      <trkpt lat="46.35589" lon="-1.06643">
        <ele>2.8</ele>
        <time>2015-04-20T07:44:23.000Z</time>
      </trkpt>
      <trkpt lat="46.3559" lon="-1.06617">
        <ele>2.8</ele>
        <time>2015-04-20T07:44:34.000Z</time>
      </trkpt>
      <trkpt lat="46.35591" lon="-1.06593">
        <ele>2.3</ele>
        <time>2015-04-20T07:44:44.000Z</time>
      </trkpt>
      <trkpt lat="46.35593" lon="-1.06565">
        <ele>2</ele>
        <time>2015-04-20T07:44:56.000Z</time>
      </trkpt>
      <trkpt lat="46.35595" lon="-1.0654">
        <ele>2</ele>
        <time>2015-04-20T07:45:07.000Z</time>
      </trkpt>
      <trkpt lat="46.35597" lon="-1.06518">
        <ele>2</ele>
        <time>2015-04-20T07:45:17.000Z</time>
      </trkpt>
      <trkpt lat="46.35599" lon="-1.06491">
        <ele>2</ele>
        <time>2015-04-20T07:45:29.000Z</time>
      </trkpt>
      <trkpt lat="46.356" lon="-1.06468">
        <ele>2</ele>
        <time>2015-04-20T07:45:40.000Z</time>
      </trkpt>
      <trkpt lat="46.35598" lon="-1.0645">
        <ele>2</ele>
        <time>2015-04-20T07:45:51.000Z</time>
      </trkpt>
      <trkpt lat="46.35598" lon="-1.06449">
        <ele>2</ele>
        <time>2015-04-20T07:45:59.000Z</time>
      </trkpt>
      <trkpt lat="46.35584" lon="-1.06447">
        <ele>2</ele>
        <time>2015-04-20T07:51:17.000Z</time>
      </trkpt>
      <trkpt lat="46.35573" lon="-1.06452">
        <ele>1.7</ele>
        <time>2015-04-20T07:51:27.000Z</time>
      </trkpt>
      <trkpt lat="46.3556" lon="-1.06459">
        <ele>1.6</ele>
        <time>2015-04-20T07:51:38.000Z</time>
      </trkpt>
      <trkpt lat="46.35544" lon="-1.06467">
        <ele>1.9</ele>
        <time>2015-04-20T07:51:50.000Z</time>
      </trkpt>
      <trkpt lat="46.35527" lon="-1.06476">
        <ele>2</ele>
        <time>2015-04-20T07:52:02.000Z</time>
      </trkpt>
      <trkpt lat="46.35515" lon="-1.06482">
        <ele>1.7</ele>
        <time>2015-04-20T07:52:10.000Z</time>
      </trkpt>
      <trkpt lat="46.35499" lon="-1.06491">
        <ele>1.7</ele>
        <time>2015-04-20T07:52:21.000Z</time>
      </trkpt>
      <trkpt lat="46.35486" lon="-1.06498">
        <ele>2</ele>
        <time>2015-04-20T07:52:30.000Z</time>
      </trkpt>
      <trkpt lat="46.35473" lon="-1.06505">
        <ele>2</ele>
        <time>2015-04-20T07:52:40.000Z</time>
      </trkpt>
      <trkpt lat="46.35456" lon="-1.06515">
        <ele>2.3</ele>
        <time>2015-04-20T07:52:52.000Z</time>
      </trkpt>
      <trkpt lat="46.35437" lon="-1.06526">
        <ele>2.5</ele>
        <time>2015-04-20T07:53:05.000Z</time>
      </trkpt>
      <trkpt lat="46.3542" lon="-1.06535">
        <ele>1.4</ele>
        <time>2015-04-20T07:53:17.000Z</time>
      </trkpt>
      <trkpt lat="46.35403" lon="-1.06545">
        <ele>1.8</ele>
        <time>2015-04-20T07:53:29.000Z</time>
      </trkpt>
      <trkpt lat="46.35391" lon="-1.06552">
        <ele>2</ele>
        <time>2015-04-20T07:53:37.000Z</time>
      </trkpt>
      <trkpt lat="46.35374" lon="-1.06561">
        <ele>1.7</ele>
        <time>2015-04-20T07:53:49.000Z</time>
      </trkpt>
      <trkpt lat="46.35357" lon="-1.06571">
        <ele>2.2</ele>
        <time>2015-04-20T07:54:01.000Z</time>
      </trkpt>
      <trkpt lat="46.35344" lon="-1.0658">
        <ele>2.8</ele>
        <time>2015-04-20T07:54:11.000Z</time>
      </trkpt>
      <trkpt lat="46.35331" lon="-1.06588">
        <ele>2.7</ele>
        <time>2015-04-20T07:54:21.000Z</time>
      </trkpt>
      <trkpt lat="46.35327" lon="-1.06591">
        <ele>2.4</ele>
        <time>2015-04-20T07:54:29.000Z</time>
      </trkpt>
      <trkpt lat="46.35326" lon="-1.06585">
        <ele>2.5</ele>
        <time>2015-04-20T07:55:08.000Z</time>
      </trkpt>
      <trkpt lat="46.35323" lon="-1.06571">
        <ele>2.3</ele>
        <time>2015-04-20T07:55:16.000Z</time>
      </trkpt>
      <trkpt lat="46.35321" lon="-1.06555">
        <ele>2.4</ele>
        <time>2015-04-20T07:55:25.000Z</time>
      </trkpt>
      <trkpt lat="46.35329" lon="-1.06547">
        <ele>2.1</ele>
        <time>2015-04-20T07:55:32.000Z</time>
      </trkpt>
      <trkpt lat="46.35346" lon="-1.0654">
        <ele>1.8</ele>
        <time>2015-04-20T07:55:44.000Z</time>
      </trkpt>
      <trkpt lat="46.35356" lon="-1.06534">
        <ele>1.8</ele>
        <time>2015-04-20T07:55:52.000Z</time>
      </trkpt>
      <trkpt lat="46.35371" lon="-1.06526">
        <ele>2</ele>
        <time>2015-04-20T07:56:03.000Z</time>
      </trkpt>
      <trkpt lat="46.35383" lon="-1.0652">
        <ele>2</ele>
        <time>2015-04-20T07:56:12.000Z</time>
      </trkpt>
      <trkpt lat="46.354" lon="-1.06512">
        <ele>2.1</ele>
        <time>2015-04-20T07:56:24.000Z</time>
      </trkpt>
      <trkpt lat="46.35418" lon="-1.06502">
        <ele>2.8</ele>
        <time>2015-04-20T07:56:37.000Z</time>
      </trkpt>
      <trkpt lat="46.35431" lon="-1.06494">
        <ele>2.4</ele>
        <time>2015-04-20T07:56:47.000Z</time>
      </trkpt>
      <trkpt lat="46.35445" lon="-1.06486">
        <ele>2</ele>
        <time>2015-04-20T07:56:57.000Z</time>
      </trkpt>
      <trkpt lat="46.35462" lon="-1.06476">
        <ele>2</ele>
        <time>2015-04-20T07:57:09.000Z</time>
      </trkpt>
      <trkpt lat="46.35479" lon="-1.06466">
        <ele>1.8</ele>
        <time>2015-04-20T07:57:21.000Z</time>
      </trkpt>
      <trkpt lat="46.35493" lon="-1.06458">
        <ele>1.6</ele>
        <time>2015-04-20T07:57:31.000Z</time>
      </trkpt>
      <trkpt lat="46.35509" lon="-1.0645">
        <ele>1.9</ele>
        <time>2015-04-20T07:57:42.000Z</time>
      </trkpt>
      <trkpt lat="46.35526" lon="-1.0644">
        <ele>2</ele>
        <time>2015-04-20T07:57:54.000Z</time>
      </trkpt>
      <trkpt lat="46.35543" lon="-1.06431">
        <ele>1.7</ele>
        <time>2015-04-20T07:58:06.000Z</time>
      </trkpt>
      <trkpt lat="46.3556" lon="-1.06422">
        <ele>1.8</ele>
        <time>2015-04-20T07:58:18.000Z</time>
      </trkpt>
      <trkpt lat="46.35576" lon="-1.06413">
        <ele>2</ele>
        <time>2015-04-20T07:58:29.000Z</time>
      </trkpt>
      <trkpt lat="46.35588" lon="-1.06406">
        <ele>2</ele>
        <time>2015-04-20T07:58:38.000Z</time>
      </trkpt>
      <trkpt lat="46.35605" lon="-1.06396">
        <ele>2</ele>
        <time>2015-04-20T07:58:50.000Z</time>
      </trkpt>
      <trkpt lat="46.35622" lon="-1.06386">
        <ele>1.6</ele>
        <time>2015-04-20T07:59:02.000Z</time>
      </trkpt>
      <trkpt lat="46.35638" lon="-1.06377">
        <ele>1.4</ele>
        <time>2015-04-20T07:59:14.000Z</time>
      </trkpt>
      <trkpt lat="46.35655" lon="-1.06368">
        <ele>1.8</ele>
        <time>2015-04-20T07:59:26.000Z</time>
      </trkpt>
      <trkpt lat="46.3567" lon="-1.06359">
        <ele>1.9</ele>
        <time>2015-04-20T07:59:37.000Z</time>
      </trkpt>
      <trkpt lat="46.35684" lon="-1.06351">
        <ele>1.6</ele>
        <time>2015-04-20T07:59:47.000Z</time>
      </trkpt>
      <trkpt lat="46.35702" lon="-1.06341">
        <ele>1.8</ele>
        <time>2015-04-20T07:59:59.000Z</time>
      </trkpt>
      <trkpt lat="46.3572" lon="-1.06332">
        <ele>2</ele>
        <time>2015-04-20T08:00:11.000Z</time>
      </trkpt>
      <trkpt lat="46.35736" lon="-1.06323">
        <ele>1.7</ele>
        <time>2015-04-20T08:00:22.000Z</time>
      </trkpt>
      <trkpt lat="46.35754" lon="-1.06313">
        <ele>1.7</ele>
        <time>2015-04-20T08:00:34.000Z</time>
      </trkpt>
      <trkpt lat="46.35771" lon="-1.06304">
        <ele>1.3</ele>
        <time>2015-04-20T08:00:46.000Z</time>
      </trkpt>
      <trkpt lat="46.35788" lon="-1.06294">
        <ele>1.4</ele>
        <time>2015-04-20T08:00:57.000Z</time>
      </trkpt>
      <trkpt lat="46.35803" lon="-1.06286">
        <ele>1.7</ele>
        <time>2015-04-20T08:01:08.000Z</time>
      </trkpt>
      <trkpt lat="46.3582" lon="-1.06277">
        <ele>2</ele>
        <time>2015-04-20T08:01:20.000Z</time>
      </trkpt>
      <trkpt lat="46.35837" lon="-1.06267">
        <ele>2</ele>
        <time>2015-04-20T08:01:32.000Z</time>
      </trkpt>
      <trkpt lat="46.35854" lon="-1.06257">
        <ele>2</ele>
        <time>2015-04-20T08:01:44.000Z</time>
      </trkpt>
      <trkpt lat="46.35872" lon="-1.06247">
        <ele>1.7</ele>
        <time>2015-04-20T08:01:56.000Z</time>
      </trkpt>
      <trkpt lat="46.35889" lon="-1.06238">
        <ele>1.4</ele>
        <time>2015-04-20T08:02:08.000Z</time>
      </trkpt>
      <trkpt lat="46.35905" lon="-1.06229">
        <ele>1.9</ele>
        <time>2015-04-20T08:02:19.000Z</time>
      </trkpt>
      <trkpt lat="46.35921" lon="-1.06219">
        <ele>1.9</ele>
        <time>2015-04-20T08:02:30.000Z</time>
      </trkpt>
      <trkpt lat="46.35932" lon="-1.06213">
        <ele>1.6</ele>
        <time>2015-04-20T08:02:38.000Z</time>
      </trkpt>
      <trkpt lat="46.35935" lon="-1.06211">
        <ele>1.6</ele>
        <time>2015-04-20T08:02:40.000Z</time>
      </trkpt>
      <trkpt lat="46.35959" lon="-1.06198">
        <ele>1.9</ele>
        <time>2015-04-20T08:02:56.000Z</time>
      </trkpt>
      <trkpt lat="46.35974" lon="-1.06189">
        <ele>1.9</ele>
        <time>2015-04-20T08:03:06.000Z</time>
      </trkpt>
      <trkpt lat="46.35991" lon="-1.06179">
        <ele>1.7</ele>
        <time>2015-04-20T08:03:18.000Z</time>
      </trkpt>
      <trkpt lat="46.36009" lon="-1.06169">
        <ele>1.7</ele>
        <time>2015-04-20T08:03:30.000Z</time>
      </trkpt>
      <trkpt lat="46.36021" lon="-1.06163">
        <ele>1.3</ele>
        <time>2015-04-20T08:03:38.000Z</time>
      </trkpt>
      <trkpt lat="46.36038" lon="-1.06153">
        <ele>1.7</ele>
        <time>2015-04-20T08:03:50.000Z</time>
      </trkpt>
      <trkpt lat="46.36055" lon="-1.06143">
        <ele>2</ele>
        <time>2015-04-20T08:04:02.000Z</time>
      </trkpt>
      <trkpt lat="46.36072" lon="-1.06135">
        <ele>2</ele>
        <time>2015-04-20T08:04:13.000Z</time>
      </trkpt>
      <trkpt lat="46.36086" lon="-1.06126">
        <ele>2</ele>
        <time>2015-04-20T08:04:23.000Z</time>
      </trkpt>
      <trkpt lat="46.36102" lon="-1.06117">
        <ele>2</ele>
        <time>2015-04-20T08:04:34.000Z</time>
      </trkpt>
      <trkpt lat="46.36119" lon="-1.06108">
        <ele>1.8</ele>
        <time>2015-04-20T08:04:45.000Z</time>
      </trkpt>
      <trkpt lat="46.36136" lon="-1.06098">
        <ele>1.5</ele>
        <time>2015-04-20T08:04:57.000Z</time>
      </trkpt>
      <trkpt lat="46.36154" lon="-1.06089">
        <ele>1.9</ele>
        <time>2015-04-20T08:05:09.000Z</time>
      </trkpt>
      <trkpt lat="46.36171" lon="-1.0608">
        <ele>1.9</ele>
        <time>2015-04-20T08:05:21.000Z</time>
      </trkpt>
      <trkpt lat="46.36189" lon="-1.0607">
        <ele>1.6</ele>
        <time>2015-04-20T08:05:33.000Z</time>
      </trkpt>
      <trkpt lat="46.36206" lon="-1.0606">
        <ele>1.9</ele>
        <time>2015-04-20T08:05:45.000Z</time>
      </trkpt>
      <trkpt lat="46.36239" lon="-1.06041">
        <ele>1.7</ele>
        <time>2015-04-20T08:06:08.000Z</time>
      </trkpt>
      <trkpt lat="46.36256" lon="-1.06031">
        <ele>1.9</ele>
        <time>2015-04-20T08:06:20.000Z</time>
      </trkpt>
      <trkpt lat="46.36273" lon="-1.06021">
        <ele>2.2</ele>
        <time>2015-04-20T08:06:32.000Z</time>
      </trkpt>
      <trkpt lat="46.36288" lon="-1.06014">
        <ele>2.3</ele>
        <time>2015-04-20T08:06:42.000Z</time>
      </trkpt>
      <trkpt lat="46.36301" lon="-1.06006">
        <ele>2.1</ele>
        <time>2015-04-20T08:06:51.000Z</time>
      </trkpt>
      <trkpt lat="46.36317" lon="-1.05996">
        <ele>1.7</ele>
        <time>2015-04-20T08:07:02.000Z</time>
      </trkpt>
      <trkpt lat="46.36334" lon="-1.05986">
        <ele>1.5</ele>
        <time>2015-04-20T08:07:14.000Z</time>
      </trkpt>
      <trkpt lat="46.36348" lon="-1.05979">
        <ele>1.9</ele>
        <time>2015-04-20T08:07:24.000Z</time>
      </trkpt>
      <trkpt lat="46.36362" lon="-1.05972">
        <ele>2</ele>
        <time>2015-04-20T08:07:33.000Z</time>
      </trkpt>
      <trkpt lat="46.3638" lon="-1.05962">
        <ele>1.9</ele>
        <time>2015-04-20T08:07:45.000Z</time>
      </trkpt>
      <trkpt lat="46.36398" lon="-1.05952">
        <ele>2.3</ele>
        <time>2015-04-20T08:07:57.000Z</time>
      </trkpt>
      <trkpt lat="46.36414" lon="-1.05943">
        <ele>2.1</ele>
        <time>2015-04-20T08:08:08.000Z</time>
      </trkpt>
      <trkpt lat="46.36431" lon="-1.05933">
        <ele>2</ele>
        <time>2015-04-20T08:08:19.000Z</time>
      </trkpt>
      <trkpt lat="46.36449" lon="-1.05923">
        <ele>2</ele>
        <time>2015-04-20T08:08:31.000Z</time>
      </trkpt>
      <trkpt lat="46.36465" lon="-1.05914">
        <ele>2</ele>
        <time>2015-04-20T08:08:42.000Z</time>
      </trkpt>
      <trkpt lat="46.36483" lon="-1.05904">
        <ele>2.2</ele>
        <time>2015-04-20T08:08:54.000Z</time>
      </trkpt>
      <trkpt lat="46.36499" lon="-1.05894">
        <ele>2.8</ele>
        <time>2015-04-20T08:09:05.000Z</time>
      </trkpt>
      <trkpt lat="46.36517" lon="-1.05883">
        <ele>2.3</ele>
        <time>2015-04-20T08:09:17.000Z</time>
      </trkpt>
      <trkpt lat="46.36532" lon="-1.05875">
        <ele>2</ele>
        <time>2015-04-20T08:09:27.000Z</time>
      </trkpt>
      <trkpt lat="46.36547" lon="-1.05865">
        <ele>2</ele>
        <time>2015-04-20T08:09:37.000Z</time>
      </trkpt>
      <trkpt lat="46.3656" lon="-1.05858">
        <ele>2</ele>
        <time>2015-04-20T08:09:46.000Z</time>
      </trkpt>
      <trkpt lat="46.36597" lon="-1.05837">
        <ele>2.1</ele>
        <time>2015-04-20T08:10:11.000Z</time>
      </trkpt>
      <trkpt lat="46.36615" lon="-1.05826">
        <ele>1.9</ele>
        <time>2015-04-20T08:10:23.000Z</time>
      </trkpt>
      <trkpt lat="46.36632" lon="-1.05816">
        <ele>2.2</ele>
        <time>2015-04-20T08:10:35.000Z</time>
      </trkpt>
      <trkpt lat="46.36646" lon="-1.05808">
        <ele>2.6</ele>
        <time>2015-04-20T08:10:44.000Z</time>
      </trkpt>
      <trkpt lat="46.36664" lon="-1.05798">
        <ele>2.1</ele>
        <time>2015-04-20T08:10:57.000Z</time>
      </trkpt>
      <trkpt lat="46.36682" lon="-1.05787">
        <ele>2</ele>
        <time>2015-04-20T08:11:09.000Z</time>
      </trkpt>
      <trkpt lat="46.36695" lon="-1.05779">
        <ele>2</ele>
        <time>2015-04-20T08:11:18.000Z</time>
      </trkpt>
      <trkpt lat="46.36713" lon="-1.05769">
        <ele>1.5</ele>
        <time>2015-04-20T08:11:30.000Z</time>
      </trkpt>
      <trkpt lat="46.3673" lon="-1.0576">
        <ele>1.9</ele>
        <time>2015-04-20T08:11:42.000Z</time>
      </trkpt>
      <trkpt lat="46.36748" lon="-1.0575">
        <ele>2.9</ele>
        <time>2015-04-20T08:11:54.000Z</time>
      </trkpt>
      <trkpt lat="46.36765" lon="-1.05741">
        <ele>1.9</ele>
        <time>2015-04-20T08:12:06.000Z</time>
      </trkpt>
      <trkpt lat="46.36781" lon="-1.05732">
        <ele>1.7</ele>
        <time>2015-04-20T08:12:17.000Z</time>
      </trkpt>
      <trkpt lat="46.36795" lon="-1.05724">
        <ele>2</ele>
        <time>2015-04-20T08:12:27.000Z</time>
      </trkpt>
      <trkpt lat="46.36812" lon="-1.05714">
        <ele>2.1</ele>
        <time>2015-04-20T08:12:39.000Z</time>
      </trkpt>
      <trkpt lat="46.36829" lon="-1.05703">
        <ele>2.6</ele>
        <time>2015-04-20T08:12:51.000Z</time>
      </trkpt>
      <trkpt lat="46.36834" lon="-1.05697">
        <ele>2.9</ele>
        <time>2015-04-20T08:12:56.000Z</time>
      </trkpt>
      <trkpt lat="46.36836" lon="-1.05694">
        <ele>2.9</ele>
        <time>2015-04-20T08:13:05.000Z</time>
      </trkpt>
      <trkpt lat="46.36834" lon="-1.05688">
        <ele>3</ele>
        <time>2015-04-20T08:13:11.000Z</time>
      </trkpt>
      <trkpt lat="46.36832" lon="-1.05687">
        <ele>3</ele>
        <time>2015-04-20T08:13:22.000Z</time>
      </trkpt>
      <trkpt lat="46.36833" lon="-1.05681">
        <ele>3</ele>
        <time>2015-04-20T08:13:26.000Z</time>
      </trkpt>
      <trkpt lat="46.36835" lon="-1.05664">
        <ele>3</ele>
        <time>2015-04-20T08:13:34.000Z</time>
      </trkpt>
      <trkpt lat="46.36834" lon="-1.0565">
        <ele>3</ele>
        <time>2015-04-20T08:13:41.000Z</time>
      </trkpt>
      <trkpt lat="46.36834" lon="-1.05648">
        <ele>3</ele>
        <time>2015-04-20T08:13:43.000Z</time>
      </trkpt>
      <trkpt lat="46.36833" lon="-1.05649">
        <ele>3</ele>
        <time>2015-04-20T08:13:50.000Z</time>
      </trkpt>
      <trkpt lat="46.36833" lon="-1.05648">
        <ele>3</ele>
        <time>2015-04-20T08:14:20.000Z</time>
      </trkpt>
      <trkpt lat="46.36832" lon="-1.05649">
        <ele>3</ele>
        <time>2015-04-20T08:14:32.000Z</time>
      </trkpt>
      <trkpt lat="46.36833" lon="-1.0566">
        <ele>3</ele>
        <time>2015-04-20T08:14:38.000Z</time>
      </trkpt>
      <trkpt lat="46.36832" lon="-1.05674">
        <ele>3</ele>
        <time>2015-04-20T08:14:45.000Z</time>
      </trkpt>
      <trkpt lat="46.36832" lon="-1.05676">
        <ele>3</ele>
        <time>2015-04-20T08:14:46.000Z</time>
      </trkpt>
      <trkpt lat="46.36832" lon="-1.05683">
        <ele>3</ele>
        <time>2015-04-20T08:14:51.000Z</time>
      </trkpt>
      <trkpt lat="46.36832" lon="-1.0569">
        <ele>3</ele>
        <time>2015-04-20T08:14:58.000Z</time>
      </trkpt>
      <trkpt lat="46.36832" lon="-1.05692">
        <ele>3</ele>
        <time>2015-04-20T08:15:20.000Z</time>
      </trkpt>
      <trkpt lat="46.36829" lon="-1.05687">
        <ele>2.9</ele>
        <time>2015-04-20T08:15:31.000Z</time>
      </trkpt>
      <trkpt lat="46.3683" lon="-1.05688">
        <ele>2.9</ele>
        <time>2015-04-20T08:15:36.000Z</time>
      </trkpt>
      <trkpt lat="46.36832" lon="-1.05691">
        <ele>2.9</ele>
        <time>2015-04-20T08:15:44.000Z</time>
      </trkpt>
      <trkpt lat="46.36834" lon="-1.05692">
        <ele>3</ele>
        <time>2015-04-20T08:15:51.000Z</time>
      </trkpt>
      <trkpt lat="46.36834" lon="-1.05693">
        <ele>3</ele>
        <time>2015-04-20T08:16:01.000Z</time>
      </trkpt>
      <trkpt lat="46.36835" lon="-1.05694">
        <ele>2.9</ele>
        <time>2015-04-20T08:16:16.000Z</time>
      </trkpt>
      <trkpt lat="46.36838" lon="-1.05693">
        <ele>2.9</ele>
        <time>2015-04-20T08:16:20.000Z</time>
      </trkpt>
      <trkpt lat="46.36841" lon="-1.05693">
        <ele>2.7</ele>
        <time>2015-04-20T08:16:47.000Z</time>
      </trkpt>
      <trkpt lat="46.36842" lon="-1.05692">
        <ele>2.7</ele>
        <time>2015-04-20T08:17:30.000Z</time>
      </trkpt>
      <trkpt lat="46.36845" lon="-1.0569">
        <ele>2.6</ele>
        <time>2015-04-20T08:19:34.000Z</time>
      </trkpt>
      <trkpt lat="46.36848" lon="-1.05689">
        <ele>2.6</ele>
        <time>2015-04-20T08:20:06.000Z</time>
      </trkpt>
      <trkpt lat="46.3685" lon="-1.05688">
        <ele>2.5</ele>
        <time>2015-04-20T08:20:29.000Z</time>
      </trkpt>
      <trkpt lat="46.36855" lon="-1.05685">
        <ele>2.5</ele>
        <time>2015-04-20T08:20:36.000Z</time>
      </trkpt>
      <trkpt lat="46.36859" lon="-1.05681">
        <ele>2.5</ele>
        <time>2015-04-20T08:20:41.000Z</time>
      </trkpt>
      <trkpt lat="46.3686" lon="-1.05675">
        <ele>2.7</ele>
        <time>2015-04-20T08:20:45.000Z</time>
      </trkpt>
      <trkpt lat="46.36858" lon="-1.0566">
        <ele>3</ele>
        <time>2015-04-20T08:20:54.000Z</time>
      </trkpt>
      <trkpt lat="46.36855" lon="-1.05644">
        <ele>3</ele>
        <time>2015-04-20T08:21:04.000Z</time>
      </trkpt>
      <trkpt lat="46.36854" lon="-1.05636">
        <ele>3</ele>
        <time>2015-04-20T08:21:09.000Z</time>
      </trkpt>
      <trkpt lat="46.36852" lon="-1.0562">
        <ele>2.8</ele>
        <time>2015-04-20T08:21:18.000Z</time>
      </trkpt>
      <trkpt lat="46.36849" lon="-1.05605">
        <ele>2.5</ele>
        <time>2015-04-20T08:21:26.000Z</time>
      </trkpt>
      <trkpt lat="46.36847" lon="-1.05588">
        <ele>2.1</ele>
        <time>2015-04-20T08:21:35.000Z</time>
      </trkpt>
      <trkpt lat="46.36845" lon="-1.05571">
        <ele>2</ele>
        <time>2015-04-20T08:21:44.000Z</time>
      </trkpt>
      <trkpt lat="46.36842" lon="-1.05546">
        <ele>2</ele>
        <time>2015-04-20T08:21:57.000Z</time>
      </trkpt>
      <trkpt lat="46.36839" lon="-1.05524">
        <ele>2</ele>
        <time>2015-04-20T08:22:08.000Z</time>
      </trkpt>
      <trkpt lat="46.36837" lon="-1.05505">
        <ele>2</ele>
        <time>2015-04-20T08:22:17.000Z</time>
      </trkpt>
      <trkpt lat="46.36834" lon="-1.05483">
        <ele>2.6</ele>
        <time>2015-04-20T08:22:28.000Z</time>
      </trkpt>
      <trkpt lat="46.36832" lon="-1.05462">
        <ele>3</ele>
        <time>2015-04-20T08:22:38.000Z</time>
      </trkpt>
      <trkpt lat="46.36829" lon="-1.05436">
        <ele>3</ele>
        <time>2015-04-20T08:22:51.000Z</time>
      </trkpt>
      <trkpt lat="46.36825" lon="-1.0541">
        <ele>2.8</ele>
        <time>2015-04-20T08:23:04.000Z</time>
      </trkpt>
      <trkpt lat="46.36823" lon="-1.05385">
        <ele>2</ele>
        <time>2015-04-20T08:23:16.000Z</time>
      </trkpt>
      <trkpt lat="46.3682" lon="-1.05362">
        <ele>2</ele>
        <time>2015-04-20T08:23:27.000Z</time>
      </trkpt>
      <trkpt lat="46.36817" lon="-1.05337">
        <ele>2</ele>
        <time>2015-04-20T08:23:39.000Z</time>
      </trkpt>
      <trkpt lat="46.36814" lon="-1.05318">
        <ele>2</ele>
        <time>2015-04-20T08:23:48.000Z</time>
      </trkpt>
      <trkpt lat="46.3681" lon="-1.05282">
        <ele>2</ele>
        <time>2015-04-20T08:24:05.000Z</time>
      </trkpt>
      <trkpt lat="46.36807" lon="-1.05255">
        <ele>2.8</ele>
        <time>2015-04-20T08:24:18.000Z</time>
      </trkpt>
      <trkpt lat="46.36804" lon="-1.05234">
        <ele>3</ele>
        <time>2015-04-20T08:24:28.000Z</time>
      </trkpt>
      <trkpt lat="46.36801" lon="-1.05209">
        <ele>3</ele>
        <time>2015-04-20T08:24:40.000Z</time>
      </trkpt>
      <trkpt lat="46.36796" lon="-1.05182">
        <ele>2.6</ele>
        <time>2015-04-20T08:24:53.000Z</time>
      </trkpt>
      <trkpt lat="46.36793" lon="-1.0516">
        <ele>2</ele>
        <time>2015-04-20T08:25:05.000Z</time>
      </trkpt>
      <trkpt lat="46.36791" lon="-1.05136">
        <ele>2</ele>
        <time>2015-04-20T08:25:17.000Z</time>
      </trkpt>
      <trkpt lat="46.36787" lon="-1.05112">
        <ele>2</ele>
        <time>2015-04-20T08:25:28.000Z</time>
      </trkpt>
      <trkpt lat="46.36784" lon="-1.05088">
        <ele>2</ele>
        <time>2015-04-20T08:25:40.000Z</time>
      </trkpt>
      <trkpt lat="46.36781" lon="-1.0506">
        <ele>2</ele>
        <time>2015-04-20T08:25:53.000Z</time>
      </trkpt>
      <trkpt lat="46.36778" lon="-1.05033">
        <ele>2.8</ele>
        <time>2015-04-20T08:26:06.000Z</time>
      </trkpt>
      <trkpt lat="46.36776" lon="-1.05012">
        <ele>2.4</ele>
        <time>2015-04-20T08:26:16.000Z</time>
      </trkpt>
      <trkpt lat="46.36773" lon="-1.04989">
        <ele>2.2</ele>
        <time>2015-04-20T08:26:27.000Z</time>
      </trkpt>
      <trkpt lat="46.36771" lon="-1.04971">
        <ele>2.2</ele>
        <time>2015-04-20T08:26:35.000Z</time>
      </trkpt>
      <trkpt lat="46.36769" lon="-1.04955">
        <ele>2.1</ele>
        <time>2015-04-20T08:26:43.000Z</time>
      </trkpt>
      <trkpt lat="46.36767" lon="-1.04935">
        <ele>2</ele>
        <time>2015-04-20T08:26:53.000Z</time>
      </trkpt>
      <trkpt lat="46.36764" lon="-1.04911">
        <ele>1.9</ele>
        <time>2015-04-20T08:27:04.000Z</time>
      </trkpt>
      <trkpt lat="46.36762" lon="-1.04892">
        <ele>1.5</ele>
        <time>2015-04-20T08:27:13.000Z</time>
      </trkpt>
      <trkpt lat="46.3676" lon="-1.04873">
        <ele>1.7</ele>
        <time>2015-04-20T08:27:22.000Z</time>
      </trkpt>
      <trkpt lat="46.36757" lon="-1.04848">
        <ele>2</ele>
        <time>2015-04-20T08:27:34.000Z</time>
      </trkpt>
      <trkpt lat="46.36754" lon="-1.04824">
        <ele>2.3</ele>
        <time>2015-04-20T08:27:45.000Z</time>
      </trkpt>
      <trkpt lat="46.3675" lon="-1.04803">
        <ele>2.9</ele>
        <time>2015-04-20T08:27:55.000Z</time>
      </trkpt>
      <trkpt lat="46.36748" lon="-1.04783">
        <ele>2.3</ele>
        <time>2015-04-20T08:28:04.000Z</time>
      </trkpt>
      <trkpt lat="46.36745" lon="-1.0476">
        <ele>2.2</ele>
        <time>2015-04-20T08:28:15.000Z</time>
      </trkpt>
      <trkpt lat="46.36742" lon="-1.04739">
        <ele>2.2</ele>
        <time>2015-04-20T08:28:25.000Z</time>
      </trkpt>
      <trkpt lat="46.36739" lon="-1.04714">
        <ele>2</ele>
        <time>2015-04-20T08:28:37.000Z</time>
      </trkpt>
      <trkpt lat="46.36734" lon="-1.04671">
        <ele>2</ele>
        <time>2015-04-20T08:28:58.000Z</time>
      </trkpt>
      <trkpt lat="46.36729" lon="-1.04648">
        <ele>2</ele>
        <time>2015-04-20T08:29:10.000Z</time>
      </trkpt>
      <trkpt lat="46.36729" lon="-1.04631">
        <ele>2</ele>
        <time>2015-04-20T08:29:19.000Z</time>
      </trkpt>
      <trkpt lat="46.3673" lon="-1.0463">
        <ele>2</ele>
        <time>2015-04-20T08:29:20.000Z</time>
      </trkpt>
      <trkpt lat="46.36742" lon="-1.04623">
        <ele>2</ele>
        <time>2015-04-20T08:29:29.000Z</time>
      </trkpt>
      <trkpt lat="46.36754" lon="-1.04615">
        <ele>2</ele>
        <time>2015-04-20T08:29:39.000Z</time>
      </trkpt>
      <trkpt lat="46.36767" lon="-1.04607">
        <ele>2</ele>
        <time>2015-04-20T08:29:49.000Z</time>
      </trkpt>
      <trkpt lat="46.3678" lon="-1.04599">
        <ele>2</ele>
        <time>2015-04-20T08:29:58.000Z</time>
      </trkpt>
      <trkpt lat="46.36795" lon="-1.0459">
        <ele>2</ele>
        <time>2015-04-20T08:30:09.000Z</time>
      </trkpt>
      <trkpt lat="46.36812" lon="-1.0458">
        <ele>2</ele>
        <time>2015-04-20T08:30:21.000Z</time>
      </trkpt>
      <trkpt lat="46.36826" lon="-1.04571">
        <ele>2</ele>
        <time>2015-04-20T08:30:32.000Z</time>
      </trkpt>
      <trkpt lat="46.36839" lon="-1.04564">
        <ele>2</ele>
        <time>2015-04-20T08:30:41.000Z</time>
      </trkpt>
      <trkpt lat="46.36855" lon="-1.04554">
        <ele>2</ele>
        <time>2015-04-20T08:30:53.000Z</time>
      </trkpt>
      <trkpt lat="46.36866" lon="-1.04547">
        <ele>2</ele>
        <time>2015-04-20T08:31:01.000Z</time>
      </trkpt>
      <trkpt lat="46.3687" lon="-1.04545">
        <ele>2</ele>
        <time>2015-04-20T08:31:07.000Z</time>
      </trkpt>
      <trkpt lat="46.36882" lon="-1.04536">
        <ele>2</ele>
        <time>2015-04-20T08:31:18.000Z</time>
      </trkpt>
      <trkpt lat="46.36896" lon="-1.04527">
        <ele>2</ele>
        <time>2015-04-20T08:31:29.000Z</time>
      </trkpt>
      <trkpt lat="46.36911" lon="-1.04517">
        <ele>2</ele>
        <time>2015-04-20T08:31:40.000Z</time>
      </trkpt>
      <trkpt lat="46.36928" lon="-1.04506">
        <ele>2</ele>
        <time>2015-04-20T08:31:53.000Z</time>
      </trkpt>
      <trkpt lat="46.36945" lon="-1.04495">
        <ele>2</ele>
        <time>2015-04-20T08:32:05.000Z</time>
      </trkpt>
      <trkpt lat="46.36961" lon="-1.04484">
        <ele>2</ele>
        <time>2015-04-20T08:32:17.000Z</time>
      </trkpt>
      <trkpt lat="46.36977" lon="-1.04474">
        <ele>2</ele>
        <time>2015-04-20T08:32:29.000Z</time>
      </trkpt>
      <trkpt lat="46.36991" lon="-1.04466">
        <ele>2</ele>
        <time>2015-04-20T08:32:39.000Z</time>
      </trkpt>
      <trkpt lat="46.37006" lon="-1.04456">
        <ele>2</ele>
        <time>2015-04-20T08:32:50.000Z</time>
      </trkpt>
      <trkpt lat="46.37023" lon="-1.04445">
        <ele>2</ele>
        <time>2015-04-20T08:33:03.000Z</time>
      </trkpt>
      <trkpt lat="46.37038" lon="-1.04436">
        <ele>2</ele>
        <time>2015-04-20T08:33:14.000Z</time>
      </trkpt>
      <trkpt lat="46.37051" lon="-1.04428">
        <ele>2</ele>
        <time>2015-04-20T08:33:24.000Z</time>
      </trkpt>
      <trkpt lat="46.37065" lon="-1.04419">
        <ele>2</ele>
        <time>2015-04-20T08:33:34.000Z</time>
      </trkpt>
      <trkpt lat="46.37078" lon="-1.04411">
        <ele>2</ele>
        <time>2015-04-20T08:33:43.000Z</time>
      </trkpt>
      <trkpt lat="46.37093" lon="-1.04402">
        <ele>2</ele>
        <time>2015-04-20T08:33:54.000Z</time>
      </trkpt>
      <trkpt lat="46.37109" lon="-1.04392">
        <ele>2</ele>
        <time>2015-04-20T08:34:06.000Z</time>
      </trkpt>
      <trkpt lat="46.37122" lon="-1.04384">
        <ele>2</ele>
        <time>2015-04-20T08:34:15.000Z</time>
      </trkpt>
      <trkpt lat="46.37136" lon="-1.04375">
        <ele>2</ele>
        <time>2015-04-20T08:34:26.000Z</time>
      </trkpt>
      <trkpt lat="46.37151" lon="-1.04366">
        <ele>2</ele>
        <time>2015-04-20T08:34:37.000Z</time>
      </trkpt>
      <trkpt lat="46.37161" lon="-1.04359">
        <ele>2</ele>
        <time>2015-04-20T08:34:45.000Z</time>
      </trkpt>
      <trkpt lat="46.37173" lon="-1.04351">
        <ele>2</ele>
        <time>2015-04-20T08:34:54.000Z</time>
      </trkpt>
      <trkpt lat="46.37189" lon="-1.04342">
        <ele>2</ele>
        <time>2015-04-20T08:35:05.000Z</time>
      </trkpt>
      <trkpt lat="46.372" lon="-1.04334">
        <ele>2</ele>
        <time>2015-04-20T08:35:14.000Z</time>
      </trkpt>
      <trkpt lat="46.37213" lon="-1.04326">
        <ele>2</ele>
        <time>2015-04-20T08:35:24.000Z</time>
      </trkpt>
      <trkpt lat="46.37225" lon="-1.04318">
        <ele>2</ele>
        <time>2015-04-20T08:35:33.000Z</time>
      </trkpt>
      <trkpt lat="46.37242" lon="-1.04308">
        <ele>2</ele>
        <time>2015-04-20T08:35:45.000Z</time>
      </trkpt>
      <trkpt lat="46.37258" lon="-1.04298">
        <ele>2</ele>
        <time>2015-04-20T08:35:56.000Z</time>
      </trkpt>
      <trkpt lat="46.3727" lon="-1.04291">
        <ele>2</ele>
        <time>2015-04-20T08:36:05.000Z</time>
      </trkpt>
      <trkpt lat="46.37285" lon="-1.04281">
        <ele>2</ele>
        <time>2015-04-20T08:36:16.000Z</time>
      </trkpt>
      <trkpt lat="46.37297" lon="-1.04273">
        <ele>2</ele>
        <time>2015-04-20T08:36:25.000Z</time>
      </trkpt>
      <trkpt lat="46.37309" lon="-1.04265">
        <ele>2</ele>
        <time>2015-04-20T08:36:34.000Z</time>
      </trkpt>
      <trkpt lat="46.37324" lon="-1.04257">
        <ele>2</ele>
        <time>2015-04-20T08:36:44.000Z</time>
      </trkpt>
      <trkpt lat="46.37339" lon="-1.04247">
        <ele>2</ele>
        <time>2015-04-20T08:36:55.000Z</time>
      </trkpt>
      <trkpt lat="46.37352" lon="-1.04239">
        <ele>2</ele>
        <time>2015-04-20T08:37:05.000Z</time>
      </trkpt>
      <trkpt lat="46.3737" lon="-1.04228">
        <ele>2</ele>
        <time>2015-04-20T08:37:18.000Z</time>
      </trkpt>
      <trkpt lat="46.37384" lon="-1.04219">
        <ele>2</ele>
        <time>2015-04-20T08:37:29.000Z</time>
      </trkpt>
      <trkpt lat="46.37398" lon="-1.0421">
        <ele>2</ele>
        <time>2015-04-20T08:37:39.000Z</time>
      </trkpt>
      <trkpt lat="46.37413" lon="-1.04201">
        <ele>2</ele>
        <time>2015-04-20T08:37:50.000Z</time>
      </trkpt>
      <trkpt lat="46.37427" lon="-1.04192">
        <ele>2</ele>
        <time>2015-04-20T08:38:01.000Z</time>
      </trkpt>
      <trkpt lat="46.37439" lon="-1.04185">
        <ele>2</ele>
        <time>2015-04-20T08:38:10.000Z</time>
      </trkpt>
      <trkpt lat="46.3745" lon="-1.04177">
        <ele>2</ele>
        <time>2015-04-20T08:38:19.000Z</time>
      </trkpt>
      <trkpt lat="46.37455" lon="-1.04166">
        <ele>2</ele>
        <time>2015-04-20T08:38:26.000Z</time>
      </trkpt>
      <trkpt lat="46.37453" lon="-1.04155">
        <ele>2</ele>
        <time>2015-04-20T08:38:32.000Z</time>
      </trkpt>
      <trkpt lat="46.37449" lon="-1.04137">
        <ele>2</ele>
        <time>2015-04-20T08:38:42.000Z</time>
      </trkpt>
      <trkpt lat="46.37443" lon="-1.04112">
        <ele>2</ele>
        <time>2015-04-20T08:38:55.000Z</time>
      </trkpt>
      <trkpt lat="46.37439" lon="-1.04093">
        <ele>2</ele>
        <time>2015-04-20T08:39:05.000Z</time>
      </trkpt>
      <trkpt lat="46.37435" lon="-1.04073">
        <ele>2.2</ele>
        <time>2015-04-20T08:39:15.000Z</time>
      </trkpt>
      <trkpt lat="46.37431" lon="-1.04056">
        <ele>2.5</ele>
        <time>2015-04-20T08:39:25.000Z</time>
      </trkpt>
      <trkpt lat="46.37431" lon="-1.04055">
        <ele>2.5</ele>
        <time>2015-04-20T08:39:26.000Z</time>
      </trkpt>
      <trkpt lat="46.37431" lon="-1.04053">
        <ele>2.5</ele>
        <time>2015-04-20T08:39:31.000Z</time>
      </trkpt>
      <trkpt lat="46.37434" lon="-1.04052">
        <ele>2.5</ele>
        <time>2015-04-20T08:39:43.000Z</time>
      </trkpt>
      <trkpt lat="46.37435" lon="-1.0405">
        <ele>2.6</ele>
        <time>2015-04-20T08:39:50.000Z</time>
      </trkpt>
      <trkpt lat="46.37435" lon="-1.04049">
        <ele>2.5</ele>
        <time>2015-04-20T08:40:32.000Z</time>
      </trkpt>
      <trkpt lat="46.3744" lon="-1.0405">
        <ele>2.7</ele>
        <time>2015-04-20T08:42:46.000Z</time>
      </trkpt>
      <trkpt lat="46.37448" lon="-1.04057">
        <ele>2.8</ele>
        <time>2015-04-20T08:42:54.000Z</time>
      </trkpt>
      <trkpt lat="46.37449" lon="-1.04057">
        <ele>2.8</ele>
        <time>2015-04-20T08:42:55.000Z</time>
      </trkpt>
      <trkpt lat="46.3746" lon="-1.0406">
        <ele>2.4</ele>
        <time>2015-04-20T08:43:05.000Z</time>
      </trkpt>
      <trkpt lat="46.37469" lon="-1.04067">
        <ele>2.1</ele>
        <time>2015-04-20T08:43:13.000Z</time>
      </trkpt>
      <trkpt lat="46.3748" lon="-1.04063">
        <ele>2</ele>
        <time>2015-04-20T08:43:22.000Z</time>
      </trkpt>
      <trkpt lat="46.37491" lon="-1.04055">
        <ele>2</ele>
        <time>2015-04-20T08:43:31.000Z</time>
      </trkpt>
      <trkpt lat="46.37505" lon="-1.04045">
        <ele>2</ele>
        <time>2015-04-20T08:43:42.000Z</time>
      </trkpt>
      <trkpt lat="46.37521" lon="-1.04032">
        <ele>2</ele>
        <time>2015-04-20T08:43:55.000Z</time>
      </trkpt>
      <trkpt lat="46.37534" lon="-1.04024">
        <ele>2</ele>
        <time>2015-04-20T08:44:05.000Z</time>
      </trkpt>
      <trkpt lat="46.37545" lon="-1.04016">
        <ele>2</ele>
        <time>2015-04-20T08:44:14.000Z</time>
      </trkpt>
      <trkpt lat="46.37562" lon="-1.04005">
        <ele>2</ele>
        <time>2015-04-20T08:44:26.000Z</time>
      </trkpt>
      <trkpt lat="46.37573" lon="-1.03997">
        <ele>2</ele>
        <time>2015-04-20T08:44:35.000Z</time>
      </trkpt>
      <trkpt lat="46.37603" lon="-1.03978">
        <ele>2</ele>
        <time>2015-04-20T08:44:57.000Z</time>
      </trkpt>
      <trkpt lat="46.37618" lon="-1.03968">
        <ele>2</ele>
        <time>2015-04-20T08:45:08.000Z</time>
      </trkpt>
      <trkpt lat="46.37631" lon="-1.03959">
        <ele>2</ele>
        <time>2015-04-20T08:45:19.000Z</time>
      </trkpt>
      <trkpt lat="46.37644" lon="-1.03952">
        <ele>2</ele>
        <time>2015-04-20T08:45:29.000Z</time>
      </trkpt>
      <trkpt lat="46.37652" lon="-1.03961">
        <ele>2</ele>
        <time>2015-04-20T08:45:36.000Z</time>
      </trkpt>
      <trkpt lat="46.37659" lon="-1.03979">
        <ele>2</ele>
        <time>2015-04-20T08:45:46.000Z</time>
      </trkpt>
      <trkpt lat="46.37664" lon="-1.03998">
        <ele>2</ele>
        <time>2015-04-20T08:45:56.000Z</time>
      </trkpt>
      <trkpt lat="46.37669" lon="-1.04019">
        <ele>2</ele>
        <time>2015-04-20T08:46:06.000Z</time>
      </trkpt>
      <trkpt lat="46.37675" lon="-1.04038">
        <ele>2</ele>
        <time>2015-04-20T08:46:15.000Z</time>
      </trkpt>
      <trkpt lat="46.37681" lon="-1.04058">
        <ele>2</ele>
        <time>2015-04-20T08:46:25.000Z</time>
      </trkpt>
      <trkpt lat="46.37687" lon="-1.0408">
        <ele>2</ele>
        <time>2015-04-20T08:46:36.000Z</time>
      </trkpt>
      <trkpt lat="46.37694" lon="-1.04104">
        <ele>2</ele>
        <time>2015-04-20T08:46:48.000Z</time>
      </trkpt>
      <trkpt lat="46.37703" lon="-1.04138">
        <ele>2</ele>
        <time>2015-04-20T08:47:07.000Z</time>
      </trkpt>
      <trkpt lat="46.37706" lon="-1.0415">
        <ele>2</ele>
        <time>2015-04-20T08:47:15.000Z</time>
      </trkpt>
      <trkpt lat="46.37709" lon="-1.04163">
        <ele>2</ele>
        <time>2015-04-20T08:47:24.000Z</time>
      </trkpt>
      <trkpt lat="46.37713" lon="-1.04175">
        <ele>2</ele>
        <time>2015-04-20T08:47:33.000Z</time>
      </trkpt>
      <trkpt lat="46.37716" lon="-1.0419">
        <ele>2</ele>
        <time>2015-04-20T08:47:43.000Z</time>
      </trkpt>
      <trkpt lat="46.37721" lon="-1.04208">
        <ele>2</ele>
        <time>2015-04-20T08:47:55.000Z</time>
      </trkpt>
      <trkpt lat="46.37724" lon="-1.0422">
        <ele>2</ele>
        <time>2015-04-20T08:48:02.000Z</time>
      </trkpt>
      <trkpt lat="46.37729" lon="-1.04238">
        <ele>2</ele>
        <time>2015-04-20T08:48:12.000Z</time>
      </trkpt>
      <trkpt lat="46.37732" lon="-1.0425">
        <ele>2</ele>
        <time>2015-04-20T08:48:19.000Z</time>
      </trkpt>
      <trkpt lat="46.37736" lon="-1.04265">
        <ele>2</ele>
        <time>2015-04-20T08:48:27.000Z</time>
      </trkpt>
      <trkpt lat="46.37741" lon="-1.04287">
        <ele>2</ele>
        <time>2015-04-20T08:48:38.000Z</time>
      </trkpt>
      <trkpt lat="46.37747" lon="-1.04309">
        <ele>2</ele>
        <time>2015-04-20T08:48:50.000Z</time>
      </trkpt>
      <trkpt lat="46.37753" lon="-1.04332">
        <ele>2</ele>
        <time>2015-04-20T08:49:02.000Z</time>
      </trkpt>
      <trkpt lat="46.37759" lon="-1.04354">
        <ele>2</ele>
        <time>2015-04-20T08:49:13.000Z</time>
      </trkpt>
      <trkpt lat="46.37764" lon="-1.04373">
        <ele>2</ele>
        <time>2015-04-20T08:49:23.000Z</time>
      </trkpt>
      <trkpt lat="46.37769" lon="-1.04393">
        <ele>2</ele>
        <time>2015-04-20T08:49:33.000Z</time>
      </trkpt>
      <trkpt lat="46.37774" lon="-1.04411">
        <ele>2</ele>
        <time>2015-04-20T08:49:43.000Z</time>
      </trkpt>
      <trkpt lat="46.37779" lon="-1.04428">
        <ele>2</ele>
        <time>2015-04-20T08:49:52.000Z</time>
      </trkpt>
      <trkpt lat="46.37785" lon="-1.04452">
        <ele>2</ele>
        <time>2015-04-20T08:50:04.000Z</time>
      </trkpt>
      <trkpt lat="46.37789" lon="-1.04469">
        <ele>2</ele>
        <time>2015-04-20T08:50:13.000Z</time>
      </trkpt>
      <trkpt lat="46.37795" lon="-1.04491">
        <ele>2</ele>
        <time>2015-04-20T08:50:25.000Z</time>
      </trkpt>
      <trkpt lat="46.37802" lon="-1.04514">
        <ele>2</ele>
        <time>2015-04-20T08:50:37.000Z</time>
      </trkpt>
      <trkpt lat="46.37808" lon="-1.04535">
        <ele>2</ele>
        <time>2015-04-20T08:50:48.000Z</time>
      </trkpt>
      <trkpt lat="46.37812" lon="-1.04552">
        <ele>2</ele>
        <time>2015-04-20T08:50:58.000Z</time>
      </trkpt>
      <trkpt lat="46.37811" lon="-1.04558">
        <ele>2</ele>
        <time>2015-04-20T08:51:01.000Z</time>
      </trkpt>
      <trkpt lat="46.37795" lon="-1.04572">
        <ele>2</ele>
        <time>2015-04-20T08:51:14.000Z</time>
      </trkpt>
      <trkpt lat="46.37781" lon="-1.04581">
        <ele>2</ele>
        <time>2015-04-20T08:51:24.000Z</time>
      </trkpt>
      <trkpt lat="46.37765" lon="-1.04593">
        <ele>2</ele>
        <time>2015-04-20T08:51:36.000Z</time>
      </trkpt>
      <trkpt lat="46.37735" lon="-1.04613">
        <ele>2</ele>
        <time>2015-04-20T08:51:58.000Z</time>
      </trkpt>
      <trkpt lat="46.37722" lon="-1.04623">
        <ele>2</ele>
        <time>2015-04-20T08:52:08.000Z</time>
      </trkpt>
      <trkpt lat="46.37709" lon="-1.04632">
        <ele>2</ele>
        <time>2015-04-20T08:52:18.000Z</time>
      </trkpt>
      <trkpt lat="46.37693" lon="-1.04643">
        <ele>2</ele>
        <time>2015-04-20T08:52:30.000Z</time>
      </trkpt>
      <trkpt lat="46.37679" lon="-1.04654">
        <ele>2</ele>
        <time>2015-04-20T08:52:41.000Z</time>
      </trkpt>
      <trkpt lat="46.37664" lon="-1.04666">
        <ele>2</ele>
        <time>2015-04-20T08:52:53.000Z</time>
      </trkpt>
      <trkpt lat="46.3765" lon="-1.04677">
        <ele>2</ele>
        <time>2015-04-20T08:53:04.000Z</time>
      </trkpt>
      <trkpt lat="46.37634" lon="-1.04687">
        <ele>2</ele>
        <time>2015-04-20T08:53:16.000Z</time>
      </trkpt>
      <trkpt lat="46.3762" lon="-1.04698">
        <ele>2</ele>
        <time>2015-04-20T08:53:27.000Z</time>
      </trkpt>
      <trkpt lat="46.37604" lon="-1.04712">
        <ele>2</ele>
        <time>2015-04-20T08:53:40.000Z</time>
      </trkpt>
      <trkpt lat="46.37601" lon="-1.04715">
        <ele>2</ele>
        <time>2015-04-20T08:53:46.000Z</time>
      </trkpt>
      <trkpt lat="46.37602" lon="-1.04724">
        <ele>2</ele>
        <time>2015-04-20T08:54:01.000Z</time>
      </trkpt>
      <trkpt lat="46.37605" lon="-1.04736">
        <ele>2</ele>
        <time>2015-04-20T08:54:09.000Z</time>
      </trkpt>
      <trkpt lat="46.3761" lon="-1.04755">
        <ele>2</ele>
        <time>2015-04-20T08:54:20.000Z</time>
      </trkpt>
      <trkpt lat="46.37614" lon="-1.04774">
        <ele>2</ele>
        <time>2015-04-20T08:54:30.000Z</time>
      </trkpt>
      <trkpt lat="46.37619" lon="-1.04792">
        <ele>2</ele>
        <time>2015-04-20T08:54:40.000Z</time>
      </trkpt>
      <trkpt lat="46.37623" lon="-1.04807">
        <ele>2</ele>
        <time>2015-04-20T08:54:49.000Z</time>
      </trkpt>
      <trkpt lat="46.37627" lon="-1.04825">
        <ele>2</ele>
        <time>2015-04-20T08:54:58.000Z</time>
      </trkpt>
      <trkpt lat="46.37632" lon="-1.04843">
        <ele>2</ele>
        <time>2015-04-20T08:55:08.000Z</time>
      </trkpt>
      <trkpt lat="46.37636" lon="-1.04861">
        <ele>2</ele>
        <time>2015-04-20T08:55:18.000Z</time>
      </trkpt>
      <trkpt lat="46.3764" lon="-1.04876">
        <ele>2.5</ele>
        <time>2015-04-20T08:55:26.000Z</time>
      </trkpt>
      <trkpt lat="46.37646" lon="-1.049">
        <ele>2.7</ele>
        <time>2015-04-20T08:55:39.000Z</time>
      </trkpt>
      <trkpt lat="46.37652" lon="-1.04921">
        <ele>2.4</ele>
        <time>2015-04-20T08:55:51.000Z</time>
      </trkpt>
      <trkpt lat="46.37656" lon="-1.0494">
        <ele>2.1</ele>
        <time>2015-04-20T08:56:01.000Z</time>
      </trkpt>
      <trkpt lat="46.3766" lon="-1.04953">
        <ele>2</ele>
        <time>2015-04-20T08:56:08.000Z</time>
      </trkpt>
      <trkpt lat="46.37664" lon="-1.04967">
        <ele>2</ele>
        <time>2015-04-20T08:56:17.000Z</time>
      </trkpt>
      <trkpt lat="46.37666" lon="-1.04973">
        <ele>2</ele>
        <time>2015-04-20T08:56:22.000Z</time>
      </trkpt>
      <trkpt lat="46.37668" lon="-1.0498">
        <ele>2</ele>
        <time>2015-04-20T08:56:27.000Z</time>
      </trkpt>
      <trkpt lat="46.37668" lon="-1.04981">
        <ele>2</ele>
        <time>2015-04-20T08:56:38.000Z</time>
      </trkpt>
      <trkpt lat="46.37669" lon="-1.04985">
        <ele>2</ele>
        <time>2015-04-20T08:57:18.000Z</time>
      </trkpt>
      <trkpt lat="46.3767" lon="-1.04987">
        <ele>2</ele>
        <time>2015-04-20T08:57:28.000Z</time>
      </trkpt>
      <trkpt lat="46.37671" lon="-1.0499">
        <ele>2</ele>
        <time>2015-04-20T08:57:38.000Z</time>
      </trkpt>
      <trkpt lat="46.3767" lon="-1.0499">
        <ele>2</ele>
        <time>2015-04-20T08:57:51.000Z</time>
      </trkpt>
      <trkpt lat="46.37669" lon="-1.0499">
        <ele>2</ele>
        <time>2015-04-20T08:59:52.000Z</time>
      </trkpt>
      <trkpt lat="46.37669" lon="-1.04992">
        <ele>2</ele>
        <time>2015-04-20T09:01:39.000Z</time>
      </trkpt>
      <trkpt lat="46.3767" lon="-1.04992">
        <ele>2</ele>
        <time>2015-04-20T09:01:47.000Z</time>
      </trkpt>
      <trkpt lat="46.3767" lon="-1.04992">
        <ele>2</ele>
        <time>2015-04-20T09:01:50.000Z</time>
      </trkpt>
      <trkpt lat="46.3767" lon="-1.04991">
        <ele>2</ele>
        <time>2015-04-20T09:02:56.000Z</time>
      </trkpt>
      <trkpt lat="46.37687" lon="-1.0524">
        <ele>3.5</ele>
        <time>2015-04-20T09:11:16.000Z</time>
      </trkpt>
      <trkpt lat="46.37674" lon="-1.05247">
        <ele>3.2</ele>
        <time>2015-04-20T09:11:26.000Z</time>
      </trkpt>
      <trkpt lat="46.3766" lon="-1.05254">
        <ele>3</ele>
        <time>2015-04-20T09:11:36.000Z</time>
      </trkpt>
      <trkpt lat="46.37643" lon="-1.05261">
        <ele>3</ele>
        <time>2015-04-20T09:11:48.000Z</time>
      </trkpt>
      <trkpt lat="46.37627" lon="-1.05268">
        <ele>3</ele>
        <time>2015-04-20T09:11:59.000Z</time>
      </trkpt>
      <trkpt lat="46.37614" lon="-1.05274">
        <ele>3</ele>
        <time>2015-04-20T09:12:09.000Z</time>
      </trkpt>
      <trkpt lat="46.376" lon="-1.05281">
        <ele>3</ele>
        <time>2015-04-20T09:12:20.000Z</time>
      </trkpt>
      <trkpt lat="46.37593" lon="-1.05283">
        <ele>3.1</ele>
        <time>2015-04-20T09:12:25.000Z</time>
      </trkpt>
      <trkpt lat="46.37589" lon="-1.05279">
        <ele>3</ele>
        <time>2015-04-20T09:12:30.000Z</time>
      </trkpt>
      <trkpt lat="46.37584" lon="-1.0526">
        <ele>3</ele>
        <time>2015-04-20T09:12:40.000Z</time>
      </trkpt>
      <trkpt lat="46.37579" lon="-1.05239">
        <ele>3</ele>
        <time>2015-04-20T09:12:51.000Z</time>
      </trkpt>
      <trkpt lat="46.37573" lon="-1.05219">
        <ele>3</ele>
        <time>2015-04-20T09:13:01.000Z</time>
      </trkpt>
      <trkpt lat="46.37566" lon="-1.05211">
        <ele>3</ele>
        <time>2015-04-20T09:13:07.000Z</time>
      </trkpt>
      <trkpt lat="46.37564" lon="-1.0521">
        <ele>3</ele>
        <time>2015-04-20T09:13:09.000Z</time>
      </trkpt>
      <trkpt lat="46.37554" lon="-1.05219">
        <ele>3</ele>
        <time>2015-04-20T09:13:18.000Z</time>
      </trkpt>
      <trkpt lat="46.37543" lon="-1.05222">
        <ele>3</ele>
        <time>2015-04-20T09:13:26.000Z</time>
      </trkpt>
      <trkpt lat="46.3753" lon="-1.0523">
        <ele>3</ele>
        <time>2015-04-20T09:13:36.000Z</time>
      </trkpt>
      <trkpt lat="46.37519" lon="-1.05235">
        <ele>3.2</ele>
        <time>2015-04-20T09:13:45.000Z</time>
      </trkpt>
      <trkpt lat="46.37512" lon="-1.05248">
        <ele>3.5</ele>
        <time>2015-04-20T09:13:53.000Z</time>
      </trkpt>
      <trkpt lat="46.37514" lon="-1.05267">
        <ele>3.8</ele>
        <time>2015-04-20T09:14:02.000Z</time>
      </trkpt>
      <trkpt lat="46.3751" lon="-1.05278">
        <ele>4</ele>
        <time>2015-04-20T09:14:09.000Z</time>
      </trkpt>
      <trkpt lat="46.37504" lon="-1.0529">
        <ele>4</ele>
        <time>2015-04-20T09:14:16.000Z</time>
      </trkpt>
      <trkpt lat="46.37501" lon="-1.05313">
        <ele>4</ele>
        <time>2015-04-20T09:14:28.000Z</time>
      </trkpt>
      <trkpt lat="46.37499" lon="-1.05331">
        <ele>4</ele>
        <time>2015-04-20T09:14:37.000Z</time>
      </trkpt>
      <trkpt lat="46.37504" lon="-1.05339">
        <ele>3.8</ele>
        <time>2015-04-20T09:14:44.000Z</time>
      </trkpt>
      <trkpt lat="46.37505" lon="-1.0534">
        <ele>3.8</ele>
        <time>2015-04-20T09:14:52.000Z</time>
      </trkpt>
      <trkpt lat="46.37505" lon="-1.05347">
        <ele>3.5</ele>
        <time>2015-04-20T09:15:02.000Z</time>
      </trkpt>
      <trkpt lat="46.37506" lon="-1.05353">
        <ele>3.3</ele>
        <time>2015-04-20T09:15:09.000Z</time>
      </trkpt>
      <trkpt lat="46.37507" lon="-1.05355">
        <ele>3.2</ele>
        <time>2015-04-20T09:15:16.000Z</time>
      </trkpt>
      <trkpt lat="46.37507" lon="-1.05357">
        <ele>3.2</ele>
        <time>2015-04-20T09:15:24.000Z</time>
      </trkpt>
      <trkpt lat="46.37508" lon="-1.05362">
        <ele>3</ele>
        <time>2015-04-20T09:15:30.000Z</time>
      </trkpt>
      <trkpt lat="46.3751" lon="-1.05365">
        <ele>3.2</ele>
        <time>2015-04-20T09:15:36.000Z</time>
      </trkpt>
      <trkpt lat="46.37508" lon="-1.05366">
        <ele>3.2</ele>
        <time>2015-04-20T09:15:40.000Z</time>
      </trkpt>
      <trkpt lat="46.37506" lon="-1.05372">
        <ele>3.4</ele>
        <time>2015-04-20T09:15:46.000Z</time>
      </trkpt>
      <trkpt lat="46.37507" lon="-1.05373">
        <ele>3.4</ele>
        <time>2015-04-20T09:15:47.000Z</time>
      </trkpt>
      <trkpt lat="46.3751" lon="-1.05375">
        <ele>3.5</ele>
        <time>2015-04-20T09:15:49.000Z</time>
      </trkpt>
      <trkpt lat="46.37513" lon="-1.05377">
        <ele>3.6</ele>
        <time>2015-04-20T09:15:52.000Z</time>
      </trkpt>
      <trkpt lat="46.3752" lon="-1.05392">
        <ele>4</ele>
        <time>2015-04-20T09:16:02.000Z</time>
      </trkpt>
      <trkpt lat="46.37526" lon="-1.05411">
        <ele>4</ele>
        <time>2015-04-20T09:16:12.000Z</time>
      </trkpt>
      <trkpt lat="46.37533" lon="-1.0543">
        <ele>4</ele>
        <time>2015-04-20T09:16:23.000Z</time>
      </trkpt>
      <trkpt lat="46.3754" lon="-1.05449">
        <ele>4</ele>
        <time>2015-04-20T09:16:33.000Z</time>
      </trkpt>
      <trkpt lat="46.37546" lon="-1.05468">
        <ele>4</ele>
        <time>2015-04-20T09:16:44.000Z</time>
      </trkpt>
      <trkpt lat="46.37547" lon="-1.05473">
        <ele>4</ele>
        <time>2015-04-20T09:16:47.000Z</time>
      </trkpt>
      <trkpt lat="46.37551" lon="-1.05486">
        <ele>4</ele>
        <time>2015-04-20T09:16:56.000Z</time>
      </trkpt>
      <trkpt lat="46.37555" lon="-1.055">
        <ele>4</ele>
        <time>2015-04-20T09:17:04.000Z</time>
      </trkpt>
      <trkpt lat="46.37559" lon="-1.05514">
        <ele>4</ele>
        <time>2015-04-20T09:17:13.000Z</time>
      </trkpt>
      <trkpt lat="46.37566" lon="-1.05535">
        <ele>4</ele>
        <time>2015-04-20T09:17:26.000Z</time>
      </trkpt>
      <trkpt lat="46.37571" lon="-1.05551">
        <ele>4</ele>
        <time>2015-04-20T09:17:36.000Z</time>
      </trkpt>
      <trkpt lat="46.37577" lon="-1.0557">
        <ele>4</ele>
        <time>2015-04-20T09:17:47.000Z</time>
      </trkpt>
      <trkpt lat="46.37584" lon="-1.05589">
        <ele>4</ele>
        <time>2015-04-20T09:17:59.000Z</time>
      </trkpt>
      <trkpt lat="46.3759" lon="-1.05606">
        <ele>4</ele>
        <time>2015-04-20T09:18:09.000Z</time>
      </trkpt>
      <trkpt lat="46.37596" lon="-1.05622">
        <ele>4</ele>
        <time>2015-04-20T09:18:19.000Z</time>
      </trkpt>
      <trkpt lat="46.37602" lon="-1.05639">
        <ele>4</ele>
        <time>2015-04-20T09:18:29.000Z</time>
      </trkpt>
      <trkpt lat="46.37605" lon="-1.05654">
        <ele>4</ele>
        <time>2015-04-20T09:18:37.000Z</time>
      </trkpt>
      <trkpt lat="46.3761" lon="-1.05671">
        <ele>4</ele>
        <time>2015-04-20T09:18:46.000Z</time>
      </trkpt>
      <trkpt lat="46.37614" lon="-1.0569">
        <ele>4</ele>
        <time>2015-04-20T09:18:56.000Z</time>
      </trkpt>
      <trkpt lat="46.37619" lon="-1.05712">
        <ele>4</ele>
        <time>2015-04-20T09:19:07.000Z</time>
      </trkpt>
      <trkpt lat="46.37624" lon="-1.05732">
        <ele>4</ele>
        <time>2015-04-20T09:19:18.000Z</time>
      </trkpt>
      <trkpt lat="46.37627" lon="-1.05749">
        <ele>4</ele>
        <time>2015-04-20T09:19:27.000Z</time>
      </trkpt>
      <trkpt lat="46.37633" lon="-1.05771">
        <ele>4</ele>
        <time>2015-04-20T09:19:39.000Z</time>
      </trkpt>
      <trkpt lat="46.37638" lon="-1.05794">
        <ele>4.6</ele>
        <time>2015-04-20T09:19:51.000Z</time>
      </trkpt>
      <trkpt lat="46.37641" lon="-1.05813">
        <ele>5</ele>
        <time>2015-04-20T09:20:01.000Z</time>
      </trkpt>
      <trkpt lat="46.37641" lon="-1.05815">
        <ele>5</ele>
        <time>2015-04-20T09:20:02.000Z</time>
      </trkpt>
      <trkpt lat="46.37644" lon="-1.05831">
        <ele>5</ele>
        <time>2015-04-20T09:20:10.000Z</time>
      </trkpt>
      <trkpt lat="46.37649" lon="-1.0585">
        <ele>5</ele>
        <time>2015-04-20T09:20:20.000Z</time>
      </trkpt>
      <trkpt lat="46.3765" lon="-1.05853">
        <ele>5</ele>
        <time>2015-04-20T09:20:22.000Z</time>
      </trkpt>
      <trkpt lat="46.37654" lon="-1.05868">
        <ele>5.1</ele>
        <time>2015-04-20T09:20:30.000Z</time>
      </trkpt>
      <trkpt lat="46.37657" lon="-1.05888">
        <ele>5.6</ele>
        <time>2015-04-20T09:20:40.000Z</time>
      </trkpt>
      <trkpt lat="46.37657" lon="-1.05901">
        <ele>5.8</ele>
        <time>2015-04-20T09:20:47.000Z</time>
      </trkpt>
      <trkpt lat="46.37657" lon="-1.05908">
        <ele>5.9</ele>
        <time>2015-04-20T09:20:51.000Z</time>
      </trkpt>
      <trkpt lat="46.37657" lon="-1.05919">
        <ele>6</ele>
        <time>2015-04-20T09:20:56.000Z</time>
      </trkpt>
      <trkpt lat="46.37645" lon="-1.05934">
        <ele>6</ele>
        <time>2015-04-20T09:21:07.000Z</time>
      </trkpt>
      <trkpt lat="46.37636" lon="-1.05939">
        <ele>5.9</ele>
        <time>2015-04-20T09:21:14.000Z</time>
      </trkpt>
      <trkpt lat="46.3763" lon="-1.05941">
        <ele>5.7</ele>
        <time>2015-04-20T09:21:19.000Z</time>
      </trkpt>
      <trkpt lat="46.3763" lon="-1.05953">
        <ele>5.8</ele>
        <time>2015-04-20T09:21:25.000Z</time>
      </trkpt>
      <trkpt lat="46.37632" lon="-1.05968">
        <ele>6</ele>
        <time>2015-04-20T09:21:32.000Z</time>
      </trkpt>
      <trkpt lat="46.37634" lon="-1.05986">
        <ele>6</ele>
        <time>2015-04-20T09:21:41.000Z</time>
      </trkpt>
      <trkpt lat="46.37629" lon="-1.06003">
        <ele>6</ele>
        <time>2015-04-20T09:21:50.000Z</time>
      </trkpt>
      <trkpt lat="46.37626" lon="-1.06018">
        <ele>6</ele>
        <time>2015-04-20T09:21:58.000Z</time>
      </trkpt>
      <trkpt lat="46.37625" lon="-1.06035">
        <ele>6</ele>
        <time>2015-04-20T09:22:06.000Z</time>
      </trkpt>
      <trkpt lat="46.37625" lon="-1.06059">
        <ele>6</ele>
        <time>2015-04-20T09:22:18.000Z</time>
      </trkpt>
      <trkpt lat="46.37625" lon="-1.06069">
        <ele>6</ele>
        <time>2015-04-20T09:22:23.000Z</time>
      </trkpt>
      <trkpt lat="46.37619" lon="-1.06076">
        <ele>6</ele>
        <time>2015-04-20T09:22:29.000Z</time>
      </trkpt>
      <trkpt lat="46.37607" lon="-1.06083">
        <ele>5.8</ele>
        <time>2015-04-20T09:22:38.000Z</time>
      </trkpt>
      <trkpt lat="46.37595" lon="-1.06089">
        <ele>5.4</ele>
        <time>2015-04-20T09:22:47.000Z</time>
      </trkpt>
      <trkpt lat="46.37594" lon="-1.0609">
        <ele>5.4</ele>
        <time>2015-04-20T09:22:48.000Z</time>
      </trkpt>
      <trkpt lat="46.37585" lon="-1.06091">
        <ele>5.1</ele>
        <time>2015-04-20T09:22:54.000Z</time>
      </trkpt>
      <trkpt lat="46.37571" lon="-1.06094">
        <ele>5</ele>
        <time>2015-04-20T09:23:04.000Z</time>
      </trkpt>
      <trkpt lat="46.37557" lon="-1.06099">
        <ele>5</ele>
        <time>2015-04-20T09:23:14.000Z</time>
      </trkpt>
      <trkpt lat="46.37539" lon="-1.06106">
        <ele>4.5</ele>
        <time>2015-04-20T09:23:27.000Z</time>
      </trkpt>
      <trkpt lat="46.37536" lon="-1.06117">
        <ele>4.3</ele>
        <time>2015-04-20T09:23:33.000Z</time>
      </trkpt>
      <trkpt lat="46.37539" lon="-1.06136">
        <ele>4.4</ele>
        <time>2015-04-20T09:23:42.000Z</time>
      </trkpt>
      <trkpt lat="46.37542" lon="-1.06154">
        <ele>4.5</ele>
        <time>2015-04-20T09:23:51.000Z</time>
      </trkpt>
      <trkpt lat="46.37547" lon="-1.06172">
        <ele>4.6</ele>
        <time>2015-04-20T09:24:00.000Z</time>
      </trkpt>
      <trkpt lat="46.37553" lon="-1.06194">
        <ele>4</ele>
        <time>2015-04-20T09:24:11.000Z</time>
      </trkpt>
      <trkpt lat="46.37558" lon="-1.06212">
        <ele>4</ele>
        <time>2015-04-20T09:24:20.000Z</time>
      </trkpt>
      <trkpt lat="46.37562" lon="-1.06236">
        <ele>4</ele>
        <time>2015-04-20T09:24:32.000Z</time>
      </trkpt>
      <trkpt lat="46.37566" lon="-1.0626">
        <ele>4</ele>
        <time>2015-04-20T09:24:44.000Z</time>
      </trkpt>
      <trkpt lat="46.37571" lon="-1.06283">
        <ele>4</ele>
        <time>2015-04-20T09:24:56.000Z</time>
      </trkpt>
      <trkpt lat="46.37575" lon="-1.06303">
        <ele>4</ele>
        <time>2015-04-20T09:25:06.000Z</time>
      </trkpt>
      <trkpt lat="46.37579" lon="-1.06325">
        <ele>4</ele>
        <time>2015-04-20T09:25:17.000Z</time>
      </trkpt>
      <trkpt lat="46.37583" lon="-1.06345">
        <ele>4</ele>
        <time>2015-04-20T09:25:27.000Z</time>
      </trkpt>
      <trkpt lat="46.37588" lon="-1.06366">
        <ele>4</ele>
        <time>2015-04-20T09:25:38.000Z</time>
      </trkpt>
      <trkpt lat="46.37593" lon="-1.06392">
        <ele>3.9</ele>
        <time>2015-04-20T09:25:50.000Z</time>
      </trkpt>
      <trkpt lat="46.37598" lon="-1.06417">
        <ele>3.5</ele>
        <time>2015-04-20T09:26:02.000Z</time>
      </trkpt>
      <trkpt lat="46.37603" lon="-1.06443">
        <ele>3.7</ele>
        <time>2015-04-20T09:26:14.000Z</time>
      </trkpt>
      <trkpt lat="46.37608" lon="-1.06465">
        <ele>3.9</ele>
        <time>2015-04-20T09:26:25.000Z</time>
      </trkpt>
      <trkpt lat="46.37617" lon="-1.06479">
        <ele>3.6</ele>
        <time>2015-04-20T09:26:34.000Z</time>
      </trkpt>
      <trkpt lat="46.37629" lon="-1.06489">
        <ele>3.5</ele>
        <time>2015-04-20T09:26:44.000Z</time>
      </trkpt>
      <trkpt lat="46.37639" lon="-1.065">
        <ele>4</ele>
        <time>2015-04-20T09:26:53.000Z</time>
      </trkpt>
      <trkpt lat="46.37649" lon="-1.06509">
        <ele>4</ele>
        <time>2015-04-20T09:27:01.000Z</time>
      </trkpt>
      <trkpt lat="46.37653" lon="-1.06521">
        <ele>4</ele>
        <time>2015-04-20T09:27:08.000Z</time>
      </trkpt>
      <trkpt lat="46.37657" lon="-1.0654">
        <ele>4</ele>
        <time>2015-04-20T09:27:17.000Z</time>
      </trkpt>
      <trkpt lat="46.3766" lon="-1.06558">
        <ele>4</ele>
        <time>2015-04-20T09:27:26.000Z</time>
      </trkpt>
      <trkpt lat="46.37664" lon="-1.06578">
        <ele>3.9</ele>
        <time>2015-04-20T09:27:36.000Z</time>
      </trkpt>
      <trkpt lat="46.37667" lon="-1.06598">
        <ele>4</ele>
        <time>2015-04-20T09:27:46.000Z</time>
      </trkpt>
      <trkpt lat="46.3767" lon="-1.06616">
        <ele>4</ele>
        <time>2015-04-20T09:27:55.000Z</time>
      </trkpt>
      <trkpt lat="46.37666" lon="-1.0662">
        <ele>4</ele>
        <time>2015-04-20T09:27:59.000Z</time>
      </trkpt>
      <trkpt lat="46.37649" lon="-1.06627">
        <ele>4</ele>
        <time>2015-04-20T09:28:11.000Z</time>
      </trkpt>
      <trkpt lat="46.37636" lon="-1.06634">
        <ele>4</ele>
        <time>2015-04-20T09:28:21.000Z</time>
      </trkpt>
      <trkpt lat="46.37623" lon="-1.06643">
        <ele>4</ele>
        <time>2015-04-20T09:28:31.000Z</time>
      </trkpt>
      <trkpt lat="46.37618" lon="-1.06654">
        <ele>4</ele>
        <time>2015-04-20T09:28:38.000Z</time>
      </trkpt>
      <trkpt lat="46.3762" lon="-1.06673">
        <ele>4</ele>
        <time>2015-04-20T09:28:47.000Z</time>
      </trkpt>
      <trkpt lat="46.37624" lon="-1.06696">
        <ele>4</ele>
        <time>2015-04-20T09:28:58.000Z</time>
      </trkpt>
      <trkpt lat="46.3762" lon="-1.06706">
        <ele>4</ele>
        <time>2015-04-20T09:29:04.000Z</time>
      </trkpt>
      <trkpt lat="46.37607" lon="-1.06716">
        <ele>4</ele>
        <time>2015-04-20T09:29:14.000Z</time>
      </trkpt>
      <trkpt lat="46.37602" lon="-1.06724">
        <ele>4</ele>
        <time>2015-04-20T09:29:20.000Z</time>
      </trkpt>
      <trkpt lat="46.37602" lon="-1.06729">
        <ele>4</ele>
        <time>2015-04-20T09:29:25.000Z</time>
      </trkpt>
      <trkpt lat="46.37605" lon="-1.06738">
        <ele>4</ele>
        <time>2015-04-20T09:29:32.000Z</time>
      </trkpt>
      <trkpt lat="46.37607" lon="-1.06752">
        <ele>3.9</ele>
        <time>2015-04-20T09:29:40.000Z</time>
      </trkpt>
      <trkpt lat="46.37609" lon="-1.06765">
        <ele>3.5</ele>
        <time>2015-04-20T09:29:48.000Z</time>
      </trkpt>
      <trkpt lat="46.37612" lon="-1.0678">
        <ele>3.1</ele>
        <time>2015-04-20T09:29:58.000Z</time>
      </trkpt>
      <trkpt lat="46.37612" lon="-1.06781">
        <ele>3.1</ele>
        <time>2015-04-20T09:29:59.000Z</time>
      </trkpt>
      <trkpt lat="46.37612" lon="-1.06781">
        <ele>3.1</ele>
        <time>2015-04-20T09:30:00.000Z</time>
      </trkpt>
      <trkpt lat="46.37612" lon="-1.06783">
        <ele>3.2</ele>
        <time>2015-04-20T09:30:09.000Z</time>
      </trkpt>
      <trkpt lat="46.37614" lon="-1.06783">
        <ele>3.3</ele>
        <time>2015-04-20T09:31:44.000Z</time>
      </trkpt>
      <trkpt lat="46.37615" lon="-1.06786">
        <ele>3.4</ele>
        <time>2015-04-20T09:32:05.000Z</time>
      </trkpt>
      <trkpt lat="46.37614" lon="-1.068">
        <ele>3.8</ele>
        <time>2015-04-20T09:32:13.000Z</time>
      </trkpt>
      <trkpt lat="46.37614" lon="-1.06826">
        <ele>4</ele>
        <time>2015-04-20T09:32:25.000Z</time>
      </trkpt>
      <trkpt lat="46.37618" lon="-1.0685">
        <ele>4</ele>
        <time>2015-04-20T09:32:37.000Z</time>
      </trkpt>
      <trkpt lat="46.37622" lon="-1.06872">
        <ele>4</ele>
        <time>2015-04-20T09:32:48.000Z</time>
      </trkpt>
      <trkpt lat="46.37626" lon="-1.06894">
        <ele>4</ele>
        <time>2015-04-20T09:32:59.000Z</time>
      </trkpt>
      <trkpt lat="46.37629" lon="-1.06915">
        <ele>4</ele>
        <time>2015-04-20T09:33:09.000Z</time>
      </trkpt>
      <trkpt lat="46.37637" lon="-1.06936">
        <ele>4</ele>
        <time>2015-04-20T09:33:20.000Z</time>
      </trkpt>
      <trkpt lat="46.37649" lon="-1.06953">
        <ele>4</ele>
        <time>2015-04-20T09:33:31.000Z</time>
      </trkpt>
      <trkpt lat="46.37653" lon="-1.06971">
        <ele>4</ele>
        <time>2015-04-20T09:33:40.000Z</time>
      </trkpt>
      <trkpt lat="46.37658" lon="-1.06996">
        <ele>4</ele>
        <time>2015-04-20T09:33:52.000Z</time>
      </trkpt>
      <trkpt lat="46.37663" lon="-1.07016">
        <ele>4</ele>
        <time>2015-04-20T09:34:02.000Z</time>
      </trkpt>
      <trkpt lat="46.37665" lon="-1.07033">
        <ele>4</ele>
        <time>2015-04-20T09:34:10.000Z</time>
      </trkpt>
      <trkpt lat="46.37669" lon="-1.07055">
        <ele>4</ele>
        <time>2015-04-20T09:34:20.000Z</time>
      </trkpt>
      <trkpt lat="46.37672" lon="-1.07077">
        <ele>4</ele>
        <time>2015-04-20T09:34:30.000Z</time>
      </trkpt>
      <trkpt lat="46.37675" lon="-1.071">
        <ele>4</ele>
        <time>2015-04-20T09:34:41.000Z</time>
      </trkpt>
      <trkpt lat="46.37677" lon="-1.07122">
        <ele>4</ele>
        <time>2015-04-20T09:34:51.000Z</time>
      </trkpt>
      <trkpt lat="46.3768" lon="-1.07149">
        <ele>4</ele>
        <time>2015-04-20T09:35:03.000Z</time>
      </trkpt>
      <trkpt lat="46.37683" lon="-1.07175">
        <ele>3.9</ele>
        <time>2015-04-20T09:35:15.000Z</time>
      </trkpt>
      <trkpt lat="46.37685" lon="-1.07197">
        <ele>3.6</ele>
        <time>2015-04-20T09:35:25.000Z</time>
      </trkpt>
      <trkpt lat="46.37686" lon="-1.07223">
        <ele>3.7</ele>
        <time>2015-04-20T09:35:37.000Z</time>
      </trkpt>
      <trkpt lat="46.37688" lon="-1.07249">
        <ele>3.8</ele>
        <time>2015-04-20T09:35:49.000Z</time>
      </trkpt>
      <trkpt lat="46.37683" lon="-1.07258">
        <ele>3.6</ele>
        <time>2015-04-20T09:35:55.000Z</time>
      </trkpt>
      <trkpt lat="46.3767" lon="-1.0726">
        <ele>3.1</ele>
        <time>2015-04-20T09:36:04.000Z</time>
      </trkpt>
      <trkpt lat="46.37653" lon="-1.07262">
        <ele>3</ele>
        <time>2015-04-20T09:36:15.000Z</time>
      </trkpt>
      <trkpt lat="46.37638" lon="-1.07264">
        <ele>3</ele>
        <time>2015-04-20T09:36:25.000Z</time>
      </trkpt>
      <trkpt lat="46.37623" lon="-1.07269">
        <ele>2.8</ele>
        <time>2015-04-20T09:36:36.000Z</time>
      </trkpt>
      <trkpt lat="46.37615" lon="-1.07279">
        <ele>3</ele>
        <time>2015-04-20T09:36:43.000Z</time>
      </trkpt>
      <trkpt lat="46.37605" lon="-1.07283">
        <ele>3</ele>
        <time>2015-04-20T09:36:51.000Z</time>
      </trkpt>
      <trkpt lat="46.37605" lon="-1.07286">
        <ele>3</ele>
        <time>2015-04-20T09:36:52.000Z</time>
      </trkpt>
      <trkpt lat="46.37605" lon="-1.07307">
        <ele>3</ele>
        <time>2015-04-20T09:37:02.000Z</time>
      </trkpt>
      <trkpt lat="46.37606" lon="-1.07335">
        <ele>3</ele>
        <time>2015-04-20T09:37:15.000Z</time>
      </trkpt>
      <trkpt lat="46.37607" lon="-1.07354">
        <ele>3</ele>
        <time>2015-04-20T09:37:24.000Z</time>
      </trkpt>
      <trkpt lat="46.37608" lon="-1.07382">
        <ele>3</ele>
        <time>2015-04-20T09:37:37.000Z</time>
      </trkpt>
      <trkpt lat="46.37609" lon="-1.07406">
        <ele>3.6</ele>
        <time>2015-04-20T09:37:48.000Z</time>
      </trkpt>
      <trkpt lat="46.37609" lon="-1.07417">
        <ele>3.9</ele>
        <time>2015-04-20T09:37:56.000Z</time>
      </trkpt>
      <trkpt lat="46.37609" lon="-1.07422">
        <ele>3.8</ele>
        <time>2015-04-20T09:39:03.000Z</time>
      </trkpt>
      <trkpt lat="46.3761" lon="-1.07425">
        <ele>3.7</ele>
        <time>2015-04-20T09:39:10.000Z</time>
      </trkpt>
      <trkpt lat="46.37611" lon="-1.07429">
        <ele>3.5</ele>
        <time>2015-04-20T09:39:17.000Z</time>
      </trkpt>
      <trkpt lat="46.37611" lon="-1.07433">
        <ele>3.4</ele>
        <time>2015-04-20T09:39:25.000Z</time>
      </trkpt>
      <trkpt lat="46.37613" lon="-1.07435">
        <ele>3.3</ele>
        <time>2015-04-20T09:39:32.000Z</time>
      </trkpt>
      <trkpt lat="46.37617" lon="-1.07438">
        <ele>3.3</ele>
        <time>2015-04-20T09:39:37.000Z</time>
      </trkpt>
      <trkpt lat="46.37623" lon="-1.0744">
        <ele>3.4</ele>
        <time>2015-04-20T09:39:42.000Z</time>
      </trkpt>
      <trkpt lat="46.37625" lon="-1.07448">
        <ele>3.6</ele>
        <time>2015-04-20T09:39:47.000Z</time>
      </trkpt>
      <trkpt lat="46.37627" lon="-1.07468">
        <ele>3.9</ele>
        <time>2015-04-20T09:39:58.000Z</time>
      </trkpt>
      <trkpt lat="46.37628" lon="-1.07485">
        <ele>4</ele>
        <time>2015-04-20T09:40:07.000Z</time>
      </trkpt>
      <trkpt lat="46.37628" lon="-1.07499">
        <ele>4</ele>
        <time>2015-04-20T09:40:15.000Z</time>
      </trkpt>
      <trkpt lat="46.37628" lon="-1.07515">
        <ele>3.8</ele>
        <time>2015-04-20T09:40:24.000Z</time>
      </trkpt>
      <trkpt lat="46.37628" lon="-1.07529">
        <ele>3.6</ele>
        <time>2015-04-20T09:40:32.000Z</time>
      </trkpt>
      <trkpt lat="46.37629" lon="-1.07551">
        <ele>3.6</ele>
        <time>2015-04-20T09:40:42.000Z</time>
      </trkpt>
      <trkpt lat="46.37629" lon="-1.07577">
        <ele>3.6</ele>
        <time>2015-04-20T09:40:54.000Z</time>
      </trkpt>
      <trkpt lat="46.37629" lon="-1.07598">
        <ele>3.8</ele>
        <time>2015-04-20T09:41:04.000Z</time>
      </trkpt>
      <trkpt lat="46.37628" lon="-1.07606">
        <ele>3.9</ele>
        <time>2015-04-20T09:41:08.000Z</time>
      </trkpt>
      <trkpt lat="46.37622" lon="-1.07611">
        <ele>4</ele>
        <time>2015-04-20T09:41:13.000Z</time>
      </trkpt>
      <trkpt lat="46.37605" lon="-1.07615">
        <ele>4</ele>
        <time>2015-04-20T09:41:25.000Z</time>
      </trkpt>
      <trkpt lat="46.37593" lon="-1.0762">
        <ele>4</ele>
        <time>2015-04-20T09:41:34.000Z</time>
      </trkpt>
      <trkpt lat="46.3759" lon="-1.07631">
        <ele>4</ele>
        <time>2015-04-20T09:41:40.000Z</time>
      </trkpt>
      <trkpt lat="46.3759" lon="-1.07655">
        <ele>4</ele>
        <time>2015-04-20T09:41:51.000Z</time>
      </trkpt>
      <trkpt lat="46.3759" lon="-1.07677">
        <ele>4</ele>
        <time>2015-04-20T09:42:01.000Z</time>
      </trkpt>
      <trkpt lat="46.37593" lon="-1.07699">
        <ele>4</ele>
        <time>2015-04-20T09:42:12.000Z</time>
      </trkpt>
      <trkpt lat="46.37604" lon="-1.07703">
        <ele>4</ele>
        <time>2015-04-20T09:42:20.000Z</time>
      </trkpt>
      <trkpt lat="46.37613" lon="-1.07713">
        <ele>4</ele>
        <time>2015-04-20T09:42:28.000Z</time>
      </trkpt>
      <trkpt lat="46.37615" lon="-1.07734">
        <ele>4</ele>
        <time>2015-04-20T09:42:38.000Z</time>
      </trkpt>
      <trkpt lat="46.37616" lon="-1.07761">
        <ele>4</ele>
        <time>2015-04-20T09:42:51.000Z</time>
      </trkpt>
      <trkpt lat="46.37617" lon="-1.07782">
        <ele>4</ele>
        <time>2015-04-20T09:43:01.000Z</time>
      </trkpt>
      <trkpt lat="46.3762" lon="-1.07808">
        <ele>4.3</ele>
        <time>2015-04-20T09:43:14.000Z</time>
      </trkpt>
      <trkpt lat="46.37624" lon="-1.0783">
        <ele>4.5</ele>
        <time>2015-04-20T09:43:25.000Z</time>
      </trkpt>
      <trkpt lat="46.37628" lon="-1.07857">
        <ele>4.6</ele>
        <time>2015-04-20T09:43:38.000Z</time>
      </trkpt>
      <trkpt lat="46.37631" lon="-1.07881">
        <ele>4.7</ele>
        <time>2015-04-20T09:43:50.000Z</time>
      </trkpt>
      <trkpt lat="46.37634" lon="-1.07903">
        <ele>4.9</ele>
        <time>2015-04-20T09:44:01.000Z</time>
      </trkpt>
      <trkpt lat="46.37636" lon="-1.0792">
        <ele>5</ele>
        <time>2015-04-20T09:44:10.000Z</time>
      </trkpt>
      <trkpt lat="46.37639" lon="-1.07939">
        <ele>5</ele>
        <time>2015-04-20T09:44:20.000Z</time>
      </trkpt>
      <trkpt lat="46.37643" lon="-1.07961">
        <ele>5.1</ele>
        <time>2015-04-20T09:44:31.000Z</time>
      </trkpt>
      <trkpt lat="46.37646" lon="-1.07985">
        <ele>5.3</ele>
        <time>2015-04-20T09:44:43.000Z</time>
      </trkpt>
      <trkpt lat="46.3765" lon="-1.08004">
        <ele>5.4</ele>
        <time>2015-04-20T09:44:53.000Z</time>
      </trkpt>
      <trkpt lat="46.37655" lon="-1.08028">
        <ele>5.6</ele>
        <time>2015-04-20T09:45:04.000Z</time>
      </trkpt>
      <trkpt lat="46.37659" lon="-1.08055">
        <ele>5.7</ele>
        <time>2015-04-20T09:45:17.000Z</time>
      </trkpt>
      <trkpt lat="46.37661" lon="-1.08071">
        <ele>5.4</ele>
        <time>2015-04-20T09:45:25.000Z</time>
      </trkpt>
      <trkpt lat="46.37659" lon="-1.08075">
        <ele>5.2</ele>
        <time>2015-04-20T09:45:27.000Z</time>
      </trkpt>
      <trkpt lat="46.37649" lon="-1.08081">
        <ele>5</ele>
        <time>2015-04-20T09:45:35.000Z</time>
      </trkpt>
      <trkpt lat="46.37632" lon="-1.08086">
        <ele>5.1</ele>
        <time>2015-04-20T09:45:46.000Z</time>
      </trkpt>
      <trkpt lat="46.37618" lon="-1.08091">
        <ele>5.1</ele>
        <time>2015-04-20T09:45:56.000Z</time>
      </trkpt>
      <trkpt lat="46.37603" lon="-1.08097">
        <ele>4.9</ele>
        <time>2015-04-20T09:46:06.000Z</time>
      </trkpt>
      <trkpt lat="46.37587" lon="-1.08102">
        <ele>4.4</ele>
        <time>2015-04-20T09:46:16.000Z</time>
      </trkpt>
      <trkpt lat="46.37573" lon="-1.08106">
        <ele>4.2</ele>
        <time>2015-04-20T09:46:25.000Z</time>
      </trkpt>
      <trkpt lat="46.3756" lon="-1.0811">
        <ele>4</ele>
        <time>2015-04-20T09:46:34.000Z</time>
      </trkpt>
      <trkpt lat="46.37559" lon="-1.08112">
        <ele>4</ele>
        <time>2015-04-20T09:46:36.000Z</time>
      </trkpt>
      <trkpt lat="46.3756" lon="-1.08125">
        <ele>4.1</ele>
        <time>2015-04-20T09:46:45.000Z</time>
      </trkpt>
      <trkpt lat="46.37563" lon="-1.08139">
        <ele>4.3</ele>
        <time>2015-04-20T09:46:53.000Z</time>
      </trkpt>
      <trkpt lat="46.37565" lon="-1.0815">
        <ele>4.3</ele>
        <time>2015-04-20T09:46:59.000Z</time>
      </trkpt>
      <trkpt lat="46.37567" lon="-1.08161">
        <ele>4.4</ele>
        <time>2015-04-20T09:47:05.000Z</time>
      </trkpt>
      <trkpt lat="46.37571" lon="-1.0818">
        <ele>4.5</ele>
        <time>2015-04-20T09:47:15.000Z</time>
      </trkpt>
      <trkpt lat="46.37576" lon="-1.08197">
        <ele>4.7</ele>
        <time>2015-04-20T09:47:24.000Z</time>
      </trkpt>
      <trkpt lat="46.37572" lon="-1.082">
        <ele>4.6</ele>
        <time>2015-04-20T09:47:28.000Z</time>
      </trkpt>
      <trkpt lat="46.3756" lon="-1.08202">
        <ele>4.2</ele>
        <time>2015-04-20T09:47:37.000Z</time>
      </trkpt>
      <trkpt lat="46.3755" lon="-1.08208">
        <ele>4.2</ele>
        <time>2015-04-20T09:47:46.000Z</time>
      </trkpt>
      <trkpt lat="46.37548" lon="-1.08215">
        <ele>4.3</ele>
        <time>2015-04-20T09:47:51.000Z</time>
      </trkpt>
      <trkpt lat="46.37539" lon="-1.0822">
        <ele>4.6</ele>
        <time>2015-04-20T09:47:58.000Z</time>
      </trkpt>
      <trkpt lat="46.37537" lon="-1.08233">
        <ele>4.4</ele>
        <time>2015-04-20T09:48:05.000Z</time>
      </trkpt>
      <trkpt lat="46.37538" lon="-1.08251">
        <ele>4</ele>
        <time>2015-04-20T09:48:14.000Z</time>
      </trkpt>
      <trkpt lat="46.3754" lon="-1.08272">
        <ele>4</ele>
        <time>2015-04-20T09:48:24.000Z</time>
      </trkpt>
      <trkpt lat="46.37542" lon="-1.08293">
        <ele>4</ele>
        <time>2015-04-20T09:48:35.000Z</time>
      </trkpt>
      <trkpt lat="46.37543" lon="-1.08314">
        <ele>4</ele>
        <time>2015-04-20T09:48:45.000Z</time>
      </trkpt>
      <trkpt lat="46.37545" lon="-1.0833">
        <ele>4</ele>
        <time>2015-04-20T09:48:53.000Z</time>
      </trkpt>
      <trkpt lat="46.37547" lon="-1.08347">
        <ele>3.8</ele>
        <time>2015-04-20T09:49:02.000Z</time>
      </trkpt>
      <trkpt lat="46.3755" lon="-1.0835">
        <ele>3.9</ele>
        <time>2015-04-20T09:49:07.000Z</time>
      </trkpt>
      <trkpt lat="46.37553" lon="-1.08352">
        <ele>3.9</ele>
        <time>2015-04-20T09:49:11.000Z</time>
      </trkpt>
      <trkpt lat="46.37554" lon="-1.08352">
        <ele>4</ele>
        <time>2015-04-20T09:49:19.000Z</time>
      </trkpt>
      <trkpt lat="46.37559" lon="-1.0835">
        <ele>4</ele>
        <time>2015-04-20T09:49:26.000Z</time>
      </trkpt>
      <trkpt lat="46.37563" lon="-1.08349">
        <ele>4</ele>
        <time>2015-04-20T09:49:34.000Z</time>
      </trkpt>
      <trkpt lat="46.37564" lon="-1.08349">
        <ele>4</ele>
        <time>2015-04-20T09:49:36.000Z</time>
      </trkpt>
      <trkpt lat="46.37563" lon="-1.0835">
        <ele>4</ele>
        <time>2015-04-20T10:17:29.000Z</time>
      </trkpt>
      <trkpt lat="46.3756" lon="-1.08351">
        <ele>4</ele>
        <time>2015-04-20T10:17:33.000Z</time>
      </trkpt>
      <trkpt lat="46.37549" lon="-1.08356">
        <ele>3.8</ele>
        <time>2015-04-20T10:17:42.000Z</time>
      </trkpt>
      <trkpt lat="46.37539" lon="-1.08362">
        <ele>3.4</ele>
        <time>2015-04-20T10:17:52.000Z</time>
      </trkpt>
      <trkpt lat="46.37527" lon="-1.08369">
        <ele>3.3</ele>
        <time>2015-04-20T10:18:03.000Z</time>
      </trkpt>
      <trkpt lat="46.37516" lon="-1.08382">
        <ele>3.4</ele>
        <time>2015-04-20T10:18:14.000Z</time>
      </trkpt>
      <trkpt lat="46.37515" lon="-1.08397">
        <ele>3.5</ele>
        <time>2015-04-20T10:18:22.000Z</time>
      </trkpt>
      <trkpt lat="46.37516" lon="-1.08413">
        <ele>3.4</ele>
        <time>2015-04-20T10:18:31.000Z</time>
      </trkpt>
      <trkpt lat="46.37518" lon="-1.08427">
        <ele>3.4</ele>
        <time>2015-04-20T10:18:39.000Z</time>
      </trkpt>
      <trkpt lat="46.37519" lon="-1.08444">
        <ele>3.3</ele>
        <time>2015-04-20T10:18:48.000Z</time>
      </trkpt>
      <trkpt lat="46.3752" lon="-1.08455">
        <ele>3.4</ele>
        <time>2015-04-20T10:18:54.000Z</time>
      </trkpt>
      <trkpt lat="46.3752" lon="-1.08499">
        <ele>4</ele>
        <time>2015-04-20T10:19:17.000Z</time>
      </trkpt>
      <trkpt lat="46.37519" lon="-1.08523">
        <ele>4</ele>
        <time>2015-04-20T10:19:29.000Z</time>
      </trkpt>
      <trkpt lat="46.37521" lon="-1.08544">
        <ele>4</ele>
        <time>2015-04-20T10:19:40.000Z</time>
      </trkpt>
      <trkpt lat="46.37523" lon="-1.08563">
        <ele>3.8</ele>
        <time>2015-04-20T10:19:50.000Z</time>
      </trkpt>
      <trkpt lat="46.37522" lon="-1.08573">
        <ele>3.5</ele>
        <time>2015-04-20T10:19:56.000Z</time>
      </trkpt>
      <trkpt lat="46.37523" lon="-1.08599">
        <ele>3.1</ele>
        <time>2015-04-20T10:20:09.000Z</time>
      </trkpt>
      <trkpt lat="46.37525" lon="-1.08625">
        <ele>3.5</ele>
        <time>2015-04-20T10:20:22.000Z</time>
      </trkpt>
      <trkpt lat="46.37529" lon="-1.08651">
        <ele>4</ele>
        <time>2015-04-20T10:20:35.000Z</time>
      </trkpt>
      <trkpt lat="46.37532" lon="-1.0867">
        <ele>3.9</ele>
        <time>2015-04-20T10:20:45.000Z</time>
      </trkpt>
      <trkpt lat="46.37537" lon="-1.08697">
        <ele>3</ele>
        <time>2015-04-20T10:20:59.000Z</time>
      </trkpt>
      <trkpt lat="46.37543" lon="-1.08721">
        <ele>3.5</ele>
        <time>2015-04-20T10:21:12.000Z</time>
      </trkpt>
      <trkpt lat="46.37549" lon="-1.0874">
        <ele>3.3</ele>
        <time>2015-04-20T10:21:22.000Z</time>
      </trkpt>
      <trkpt lat="46.37556" lon="-1.08765">
        <ele>3</ele>
        <time>2015-04-20T10:21:35.000Z</time>
      </trkpt>
      <trkpt lat="46.37562" lon="-1.08787">
        <ele>3</ele>
        <time>2015-04-20T10:21:47.000Z</time>
      </trkpt>
      <trkpt lat="46.37568" lon="-1.08806">
        <ele>3</ele>
        <time>2015-04-20T10:21:58.000Z</time>
      </trkpt>
      <trkpt lat="46.37575" lon="-1.08825">
        <ele>3.5</ele>
        <time>2015-04-20T10:22:09.000Z</time>
      </trkpt>
      <trkpt lat="46.3758" lon="-1.08843">
        <ele>3.6</ele>
        <time>2015-04-20T10:22:19.000Z</time>
      </trkpt>
      <trkpt lat="46.37588" lon="-1.08865">
        <ele>3.1</ele>
        <time>2015-04-20T10:22:32.000Z</time>
      </trkpt>
      <trkpt lat="46.37596" lon="-1.08887">
        <ele>3</ele>
        <time>2015-04-20T10:22:45.000Z</time>
      </trkpt>
      <trkpt lat="46.37603" lon="-1.08907">
        <ele>3</ele>
        <time>2015-04-20T10:22:57.000Z</time>
      </trkpt>
      <trkpt lat="46.37617" lon="-1.08942">
        <ele>3</ele>
        <time>2015-04-20T10:23:18.000Z</time>
      </trkpt>
      <trkpt lat="46.37617" lon="-1.08944">
        <ele>3</ele>
        <time>2015-04-20T10:23:19.000Z</time>
      </trkpt>
      <trkpt lat="46.3762" lon="-1.08954">
        <ele>3</ele>
        <time>2015-04-20T10:23:25.000Z</time>
      </trkpt>
      <trkpt lat="46.37627" lon="-1.0897">
        <ele>3</ele>
        <time>2015-04-20T10:23:35.000Z</time>
      </trkpt>
      <trkpt lat="46.37632" lon="-1.08989">
        <ele>3</ele>
        <time>2015-04-20T10:23:46.000Z</time>
      </trkpt>
      <trkpt lat="46.37636" lon="-1.09017">
        <ele>3</ele>
        <time>2015-04-20T10:24:03.000Z</time>
      </trkpt>
      <trkpt lat="46.37621" lon="-1.0902">
        <ele>3</ele>
        <time>2015-04-20T10:24:15.000Z</time>
      </trkpt>
      <trkpt lat="46.37607" lon="-1.09016">
        <ele>3</ele>
        <time>2015-04-20T10:24:26.000Z</time>
      </trkpt>
      <trkpt lat="46.37593" lon="-1.09013">
        <ele>3</ele>
        <time>2015-04-20T10:24:37.000Z</time>
      </trkpt>
      <trkpt lat="46.37579" lon="-1.0901">
        <ele>3.1</ele>
        <time>2015-04-20T10:24:48.000Z</time>
      </trkpt>
      <trkpt lat="46.37565" lon="-1.09006">
        <ele>3.5</ele>
        <time>2015-04-20T10:24:59.000Z</time>
      </trkpt>
      <trkpt lat="46.3755" lon="-1.09002">
        <ele>3.9</ele>
        <time>2015-04-20T10:25:11.000Z</time>
      </trkpt>
      <trkpt lat="46.37536" lon="-1.08999">
        <ele>4</ele>
        <time>2015-04-20T10:25:22.000Z</time>
      </trkpt>
      <trkpt lat="46.37521" lon="-1.08996">
        <ele>3.5</ele>
        <time>2015-04-20T10:25:33.000Z</time>
      </trkpt>
      <trkpt lat="46.37508" lon="-1.08992">
        <ele>2.9</ele>
        <time>2015-04-20T10:25:43.000Z</time>
      </trkpt>
      <trkpt lat="46.37494" lon="-1.08991">
        <ele>2.7</ele>
        <time>2015-04-20T10:25:54.000Z</time>
      </trkpt>
      <trkpt lat="46.37492" lon="-1.08992">
        <ele>2.6</ele>
        <time>2015-04-20T10:25:56.000Z</time>
      </trkpt>
      <trkpt lat="46.3749" lon="-1.08998">
        <ele>2.1</ele>
        <time>2015-04-20T10:26:01.000Z</time>
      </trkpt>
      <trkpt lat="46.37487" lon="-1.09005">
        <ele>2.3</ele>
        <time>2015-04-20T10:26:09.000Z</time>
      </trkpt>
      <trkpt lat="46.37479" lon="-1.09015">
        <ele>3.1</ele>
        <time>2015-04-20T10:26:18.000Z</time>
      </trkpt>
      <trkpt lat="46.37478" lon="-1.09015">
        <ele>3.1</ele>
        <time>2015-04-20T10:26:19.000Z</time>
      </trkpt>
      <trkpt lat="46.37475" lon="-1.09014">
        <ele>3</ele>
        <time>2015-04-20T10:26:22.000Z</time>
      </trkpt>
    </trkseg>
  </trk>
</gpx>